<?xml version='1.0' encoding='UTF-8'?><gpx version="1.1" creator="JPX - https://github.com/jenetics/jpx" xmlns="http://www.topografix.com/GPX/1/1"><trk><trkseg><trkpt lat="45.8534245819802" lon="11.826751711383395"><ele>810.2857142857142</ele><time>2026-05-01T05:49:48Z</time></trkpt><trkpt lat="45.85346840893622" lon="11.826651827529114"><ele>817.5714285714286</ele><time>2026-05-01T05:50:04Z</time></trkpt><trkpt lat="45.85353391882021" lon="11.826627098044481"><ele>824.8571428571429</ele><time>2026-05-01T05:50:07Z</time></trkpt><trkpt lat="45.85355410332852" lon="11.826739189310997"><ele>832.1428571428571</ele><time>2026-05-01T05:50:10Z</time></trkpt><trkpt lat="45.85360580375829" lon="11.826792680521422"><ele>839.4285714285714</ele><time>2026-05-01T05:50:13Z</time></trkpt><trkpt lat="45.85355486618749" lon="11.826691350731222"><ele>846.7142857142857</ele><time>2026-05-01T05:50:26Z</time></trkpt><trkpt lat="45.853622420034114" lon="11.826679099873404"><ele>854.0</ele><time>2026-05-01T05:50:36Z</time></trkpt><trkpt lat="45.85359319767968" lon="11.826588114282755"><ele>854.0</ele><time>2026-05-01T05:50:42Z</time></trkpt><trkpt lat="45.85367501539747" lon="11.826590595894434"><ele>854.0</ele><time>2026-05-01T05:50:46Z</time></trkpt><trkpt lat="45.85375251756719" lon="11.826605356088232"><ele>854.0</ele><time>2026-05-01T05:50:52Z</time></trkpt><trkpt lat="45.85374870719989" lon="11.82649980033088"><ele>854.0</ele><time>2026-05-01T05:50:58Z</time></trkpt><trkpt lat="45.853809187489006" lon="11.826469961440647"><ele>854.0</ele><time>2026-05-01T05:54:36Z</time></trkpt><trkpt lat="45.85387933277806" lon="11.826510197203078"><ele>854.0</ele><time>2026-05-01T05:57:15Z</time></trkpt><trkpt lat="45.85388344265892" lon="11.82641433904596"><ele>854.0</ele><time>2026-05-01T05:57:36Z</time></trkpt><trkpt lat="45.853947655354226" lon="11.826373436562783"><ele>854.0000000000001</ele><time>2026-05-01T05:57:41Z</time></trkpt><trkpt lat="45.854013019864155" lon="11.82636698117177"><ele>854.0</ele><time>2026-05-01T05:58:04Z</time></trkpt><trkpt lat="45.85405978989318" lon="11.826287738169027"><ele>854.0</ele><time>2026-05-01T05:58:17Z</time></trkpt><trkpt lat="45.85414483337084" lon="11.826167237688006"><ele>854.0</ele><time>2026-05-01T05:58:53Z</time></trkpt><trkpt lat="45.854226445099684" lon="11.826179503665493"><ele>854.0000000000001</ele><time>2026-05-01T05:59:01Z</time></trkpt><trkpt lat="45.854269645674954" lon="11.826111798704835"><ele>854.0</ele><time>2026-05-01T05:59:34Z</time></trkpt><trkpt lat="45.85433135716939" lon="11.826134047137852"><ele>859.4285714285714</ele><time>2026-05-01T05:59:51Z</time></trkpt><trkpt lat="45.85434315905181" lon="11.826035399936723"><ele>864.8571428571429</ele><time>2026-05-01T06:00:03Z</time></trkpt><trkpt lat="45.85441960249482" lon="11.826064428809426"><ele>870.2857142857142</ele><time>2026-05-01T06:00:10Z</time></trkpt><trkpt lat="45.854428382385585" lon="11.825974168134401"><ele>875.7142857142858</ele><time>2026-05-01T06:00:42Z</time></trkpt><trkpt lat="45.85449089555233" lon="11.825936746698911"><ele>881.1428571428571</ele><time>2026-05-01T06:01:02Z</time></trkpt><trkpt lat="45.85455582092757" lon="11.825903835420153"><ele>886.5714285714286</ele><time>2026-05-01T06:01:18Z</time></trkpt><trkpt lat="45.854618963966885" lon="11.825890618440896"><ele>892.0</ele><time>2026-05-01T06:01:37Z</time></trkpt><trkpt lat="45.85468379206162" lon="11.825859672174362"><ele>895.5714285714286</ele><time>2026-05-01T06:01:53Z</time></trkpt><trkpt lat="45.85469843011024" lon="11.825753679849177"><ele>899.1428571428571</ele><time>2026-05-01T06:02:09Z</time></trkpt><trkpt lat="45.8547677550229" lon="11.825763068628373"><ele>902.7142857142858</ele><time>2026-05-01T06:02:17Z</time></trkpt><trkpt lat="45.85482499922523" lon="11.825712854945634"><ele>906.2857142857142</ele><time>2026-05-01T06:02:46Z</time></trkpt><trkpt lat="45.85487049040313" lon="11.825646007895266"><ele>909.8571428571429</ele><time>2026-05-01T06:03:01Z</time></trkpt><trkpt lat="45.85492400269617" lon="11.82555679136352"><ele>913.4285714285714</ele><time>2026-05-01T06:03:24Z</time></trkpt><trkpt lat="45.854976403876684" lon="11.825505886646022"><ele>917.0</ele><time>2026-05-01T06:03:32Z</time></trkpt><trkpt lat="45.85505629509963" lon="11.825473679364965"><ele>917.0000000000001</ele><time>2026-05-01T06:03:43Z</time></trkpt><trkpt lat="45.85507340877548" lon="11.825374460361694"><ele>917.0</ele><time>2026-05-01T06:03:52Z</time></trkpt><trkpt lat="45.855144877106085" lon="11.825395786895289"><ele>917.0</ele><time>2026-05-01T06:04:37Z</time></trkpt><trkpt lat="45.85514334433894" lon="11.825304819712182"><ele>917.0</ele><time>2026-05-01T06:04:54Z</time></trkpt><trkpt lat="45.855159374918195" lon="11.825454641524079"><ele>917.0000000000001</ele><time>2026-05-01T06:05:34Z</time></trkpt><trkpt lat="45.855178432410355" lon="11.82534714398283"><ele>917.0</ele><time>2026-05-01T06:06:46Z</time></trkpt><trkpt lat="45.85518489018746" lon="11.825249785713172"><ele>923.4285714285714</ele><time>2026-05-01T06:06:55Z</time></trkpt><trkpt lat="45.85526348505261" lon="11.825320601866922"><ele>929.8571428571429</ele><time>2026-05-01T06:07:14Z</time></trkpt><trkpt lat="45.855269401484996" lon="11.825228093572164"><ele>936.2857142857142</ele><time>2026-05-01T06:07:26Z</time></trkpt><trkpt lat="45.855309268807936" lon="11.825149763669724"><ele>942.7142857142857</ele><time>2026-05-01T06:07:33Z</time></trkpt><trkpt lat="45.85535493328552" lon="11.825082328605106"><ele>949.1428571428571</ele><time>2026-05-01T06:07:49Z</time></trkpt><trkpt lat="45.85542104855569" lon="11.825078229025927"><ele>955.5714285714284</ele><time>2026-05-01T06:07:58Z</time></trkpt><trkpt lat="45.8554809399789" lon="11.825027914595807"><ele>961.9999999999999</ele><time>2026-05-01T06:08:11Z</time></trkpt><trkpt lat="45.8555446795645" lon="11.825047955011414"><ele>963.8571428571427</ele><time>2026-05-01T06:08:23Z</time></trkpt><trkpt lat="45.8556320439605" lon="11.825042679617495"><ele>965.7142857142857</ele><time>2026-05-01T06:09:00Z</time></trkpt><trkpt lat="45.85569980842089" lon="11.825053898722786"><ele>967.5714285714284</ele><time>2026-05-01T06:09:19Z</time></trkpt><trkpt lat="45.8557639027148" lon="11.825091929550675"><ele>969.4285714285713</ele><time>2026-05-01T06:09:34Z</time></trkpt><trkpt lat="45.85583540949121" lon="11.825134150071005"><ele>971.2857142857142</ele><time>2026-05-01T06:09:50Z</time></trkpt><trkpt lat="45.85586860093962" lon="11.825054815918199"><ele>973.1428571428571</ele><time>2026-05-01T06:10:20Z</time></trkpt><trkpt lat="45.8559453519759" lon="11.825066351585546"><ele>975.0</ele><time>2026-05-01T06:10:37Z</time></trkpt><trkpt lat="45.856013582787874" lon="11.825056556893946"><ele>980.5714285714286</ele><time>2026-05-01T06:11:11Z</time></trkpt><trkpt lat="45.85607880892669" lon="11.825025519466378"><ele>986.1428571428571</ele><time>2026-05-01T06:11:36Z</time></trkpt><trkpt lat="45.85609427801386" lon="11.824934758051379"><ele>991.7142857142857</ele><time>2026-05-01T06:11:58Z</time></trkpt><trkpt lat="45.856159316068286" lon="11.82492951076495"><ele>997.2857142857142</ele><time>2026-05-01T06:12:25Z</time></trkpt><trkpt lat="45.85623247930339" lon="11.824948303587071"><ele>1002.8571428571429</ele><time>2026-05-01T06:18:14Z</time></trkpt><trkpt lat="45.85629506419838" lon="11.824971666189555"><ele>1008.4285714285713</ele><time>2026-05-01T06:27:41Z</time></trkpt><trkpt lat="45.85636181584997" lon="11.824972524942288"><ele>1014.0</ele><time>2026-05-01T06:28:06Z</time></trkpt><trkpt lat="45.85642924073977" lon="11.824985316503403"><ele>1014.0</ele><time>2026-05-01T06:28:16Z</time></trkpt><trkpt lat="45.85648805213514" lon="11.824937126140208"><ele>1014.0</ele><time>2026-05-01T06:28:31Z</time></trkpt><trkpt lat="45.85655207414991" lon="11.824904861914028"><ele>1014.0</ele><time>2026-05-01T06:28:46Z</time></trkpt><trkpt lat="45.856624944942936" lon="11.824926600550917"><ele>1014.0</ele><time>2026-05-01T06:28:54Z</time></trkpt><trkpt lat="45.85668554099076" lon="11.824885920131283"><ele>1014.0</ele><time>2026-05-01T06:29:05Z</time></trkpt><trkpt lat="45.856756716768615" lon="11.824860010540107"><ele>1014.0</ele><time>2026-05-01T06:29:19Z</time></trkpt><trkpt lat="45.856823302818896" lon="11.824864931437322"><ele>1014.0</ele><time>2026-05-01T06:29:28Z</time></trkpt><trkpt lat="45.856900364129494" lon="11.824875177094793"><ele>1017.1428571428571</ele><time>2026-05-01T06:29:38Z</time></trkpt><trkpt lat="45.85694948885181" lon="11.824818485069015"><ele>1020.2857142857143</ele><time>2026-05-01T06:29:48Z</time></trkpt><trkpt lat="45.85701199700003" lon="11.824839828575"><ele>1023.4285714285714</ele><time>2026-05-01T06:29:58Z</time></trkpt><trkpt lat="45.85708107037874" lon="11.824851046442781"><ele>1026.5714285714284</ele><time>2026-05-01T06:30:07Z</time></trkpt><trkpt lat="45.85715491765023" lon="11.824866595800415"><ele>1029.7142857142858</ele><time>2026-05-01T06:30:21Z</time></trkpt><trkpt lat="45.857223431884194" lon="11.824844341424413"><ele>1032.857142857143</ele><time>2026-05-01T06:30:37Z</time></trkpt><trkpt lat="45.857285388693654" lon="11.824788825342948"><ele>1036.0</ele><time>2026-05-01T06:30:55Z</time></trkpt><trkpt lat="45.85732097979218" lon="11.824713037119267"><ele>1036.0</ele><time>2026-05-01T06:31:10Z</time></trkpt><trkpt lat="45.85737360330822" lon="11.824658104480267"><ele>1036.0</ele><time>2026-05-01T06:31:17Z</time></trkpt><trkpt lat="45.857404347908464" lon="11.82456187303071"><ele>1036.0</ele><time>2026-05-01T06:31:27Z</time></trkpt><trkpt lat="45.85746081302167" lon="11.824521017870765"><ele>1036.0</ele><time>2026-05-01T06:31:33Z</time></trkpt><trkpt lat="45.85751068525532" lon="11.824457803021113"><ele>1036.0</ele><time>2026-05-01T06:31:45Z</time></trkpt><trkpt lat="45.85754419145192" lon="11.824376403320404"><ele>1036.0</ele><time>2026-05-01T06:31:55Z</time></trkpt><trkpt lat="45.85760240918511" lon="11.824317142570772"><ele>1036.0</ele><time>2026-05-01T06:32:01Z</time></trkpt><trkpt lat="45.85762130227638" lon="11.824223527456118"><ele>1042.4285714285713</ele><time>2026-05-01T06:32:15Z</time></trkpt><trkpt lat="45.857708572561656" lon="11.824222106182596"><ele>1048.857142857143</ele><time>2026-05-01T06:32:24Z</time></trkpt><trkpt lat="45.85771378085124" lon="11.824127673824819"><ele>1055.2857142857142</ele><time>2026-05-01T06:32:41Z</time></trkpt><trkpt lat="45.85777708281806" lon="11.82412774446413"><ele>1061.7142857142858</ele><time>2026-05-01T06:32:47Z</time></trkpt><trkpt lat="45.857823761840095" lon="11.824047898515612"><ele>1068.142857142857</ele><time>2026-05-01T06:33:01Z</time></trkpt><trkpt lat="45.857891078254255" lon="11.824028405143835"><ele>1074.5714285714284</ele><time>2026-05-01T06:33:08Z</time></trkpt><trkpt lat="45.857967660265814" lon="11.824003210879951"><ele>1081.0</ele><time>2026-05-01T06:33:15Z</time></trkpt><trkpt lat="45.85803382796634" lon="11.82397534778861"><ele>1080.9999999999998</ele><time>2026-05-01T06:33:27Z</time></trkpt><trkpt lat="45.85809674597059" lon="11.82394462805965"><ele>1081.0</ele><time>2026-05-01T06:34:13Z</time></trkpt><trkpt lat="45.858154732037185" lon="11.823901707390917"><ele>1081.0</ele><time>2026-05-01T06:34:22Z</time></trkpt><trkpt lat="45.85823081244757" lon="11.823881815649846"><ele>1081.0</ele><time>2026-05-01T06:34:34Z</time></trkpt><trkpt lat="45.85829026064138" lon="11.823814658822547"><ele>1081.0</ele><time>2026-05-01T06:34:43Z</time></trkpt><trkpt lat="45.85835840405986" lon="11.823857130309445"><ele>1080.9999999999998</ele><time>2026-05-01T06:34:48Z</time></trkpt><trkpt lat="45.85842124949553" lon="11.8238662522474"><ele>1081.0</ele><time>2026-05-01T06:34:58Z</time></trkpt><trkpt lat="45.85848622810951" lon="11.823831737137382"><ele>1081.0</ele><time>2026-05-01T06:35:08Z</time></trkpt><trkpt lat="45.858550572904115" lon="11.823771299376101"><ele>1081.0</ele><time>2026-05-01T06:35:14.021Z</time></trkpt><trkpt lat="45.858689621690225" lon="11.823873739992427"><ele>1081.0</ele><time>2026-05-01T06:35:25Z</time></trkpt><trkpt lat="45.85856091590783" lon="11.823970470602482"><ele>1081.0</ele><time>2026-05-01T06:35:26Z</time></trkpt><trkpt lat="45.858493956943725" lon="11.823954806449692"><ele>1081.0</ele><time>2026-05-01T06:35:31Z</time></trkpt><trkpt lat="45.85841110036484" lon="11.823964927201589"><ele>1080.9999999999998</ele><time>2026-05-01T06:35:37Z</time></trkpt><trkpt lat="45.8584063982796" lon="11.823871428539078"><ele>1081.0</ele><time>2026-05-01T06:35:41Z</time></trkpt><trkpt lat="45.85845589635357" lon="11.823792110739817"><ele>1081.0</ele><time>2026-05-01T06:35:57Z</time></trkpt><trkpt lat="45.85851903734378" lon="11.823767624067802"><ele>1081.0</ele><time>2026-05-01T06:36:24Z</time></trkpt><trkpt lat="45.85858317905485" lon="11.823734683058822"><ele>1081.0</ele><time>2026-05-01T06:36:33Z</time></trkpt><trkpt lat="45.858646171286104" lon="11.823737987045368"><ele>1080.9999999999998</ele><time>2026-05-01T06:36:42Z</time></trkpt><trkpt lat="45.8587174538565" lon="11.823743486040803"><ele>1081.0</ele><time>2026-05-01T06:36:49Z</time></trkpt><trkpt lat="45.85877450800316" lon="11.823683650945231"><ele>1083.5714285714284</ele><time>2026-05-01T06:36:59Z</time></trkpt><trkpt lat="45.85884482709227" lon="11.823685495509658"><ele>1086.142857142857</ele><time>2026-05-01T06:37:07Z</time></trkpt><trkpt lat="45.85888440290289" lon="11.823583287155499"><ele>1088.7142857142858</ele><time>2026-05-01T06:38:04Z</time></trkpt><trkpt lat="45.858920018097784" lon="11.82350429234648"><ele>1091.2857142857142</ele><time>2026-05-01T06:38:13Z</time></trkpt><trkpt lat="45.858956712776916" lon="11.82342429436311"><ele>1093.857142857143</ele><time>2026-05-01T06:38:23Z</time></trkpt><trkpt lat="45.859019882484695" lon="11.823420655846014"><ele>1096.4285714285713</ele><time>2026-05-01T06:38:27Z</time></trkpt><trkpt lat="45.85906062991919" lon="11.823349676178182"><ele>1099.0</ele><time>2026-05-01T06:38:37Z</time></trkpt><trkpt lat="45.85910033811958" lon="11.82327950155432"><ele>1101.142857142857</ele><time>2026-05-01T06:39:03Z</time></trkpt><trkpt lat="45.85914671311858" lon="11.823212848155615"><ele>1103.2857142857142</ele><time>2026-05-01T06:39:12Z</time></trkpt><trkpt lat="45.85919410965066" lon="11.823144551714726"><ele>1105.4285714285716</ele><time>2026-05-01T06:39:29Z</time></trkpt><trkpt lat="45.85920856412298" lon="11.823050750904223"><ele>1107.5714285714284</ele><time>2026-05-01T06:39:37Z</time></trkpt><trkpt lat="45.859271541665954" lon="11.823021170362008"><ele>1109.7142857142858</ele><time>2026-05-01T06:39:43Z</time></trkpt><trkpt lat="45.85931872749789" lon="11.822960138747906"><ele>1111.857142857143</ele><time>2026-05-01T06:39:49Z</time></trkpt><trkpt lat="45.859374821308016" lon="11.822915345730575"><ele>1114.0</ele><time>2026-05-01T06:39:58Z</time></trkpt><trkpt lat="45.85944879728536" lon="11.822915626762628"><ele>1114.0</ele><time>2026-05-01T06:40:05Z</time></trkpt><trkpt lat="45.85949745159833" lon="11.822837400222602"><ele>1114.0</ele><time>2026-05-01T06:40:14Z</time></trkpt><trkpt lat="45.85952901785787" lon="11.822753409450257"><ele>1114.0</ele><time>2026-05-01T06:40:20Z</time></trkpt><trkpt lat="45.85958503246746" lon="11.822699861451428"><ele>1114.0</ele><time>2026-05-01T06:40:26Z</time></trkpt><trkpt lat="45.859617697440896" lon="11.822622484439473"><ele>1114.0</ele><time>2026-05-01T06:40:33Z</time></trkpt><trkpt lat="45.85968612137867" lon="11.82257888640601"><ele>1114.0</ele><time>2026-05-01T06:40:39Z</time></trkpt><trkpt lat="45.85967847004742" lon="11.822488369377215"><ele>1114.0</ele><time>2026-05-01T06:40:46Z</time></trkpt><trkpt lat="45.859719676547854" lon="11.822414645519958"><ele>1119.4285714285716</ele><time>2026-05-01T06:40:55Z</time></trkpt><trkpt lat="45.85977033970038" lon="11.822319935937925"><ele>1124.857142857143</ele><time>2026-05-01T06:42:30Z</time></trkpt><trkpt lat="45.85982024995116" lon="11.822262601985175"><ele>1130.2857142857142</ele><time>2026-05-01T06:42:41Z</time></trkpt><trkpt lat="45.85983674977888" lon="11.822172047310257"><ele>1135.7142857142858</ele><time>2026-05-01T06:42:50Z</time></trkpt><trkpt lat="45.85987283938618" lon="11.822073400150426"><ele>1141.142857142857</ele><time>2026-05-01T06:43:23Z</time></trkpt><trkpt lat="45.85993687279285" lon="11.822037025534435"><ele>1146.5714285714287</ele><time>2026-05-01T06:43:41Z</time></trkpt><trkpt lat="45.859870159116284" lon="11.822060252843206"><ele>1152.0</ele><time>2026-05-01T06:44:08Z</time></trkpt><trkpt lat="45.85984813563294" lon="11.821972331513775"><ele>1152.0000000000002</ele><time>2026-05-01T06:44:12Z</time></trkpt><trkpt lat="45.85977711326922" lon="11.82193779511133"><ele>1152.0</ele><time>2026-05-01T06:44:22Z</time></trkpt><trkpt lat="45.8597112356077" lon="11.821954703396077"><ele>1152.0</ele><time>2026-05-01T06:44:31Z</time></trkpt><trkpt lat="45.85970809597285" lon="11.821851464209812"><ele>1152.0</ele><time>2026-05-01T06:44:41Z</time></trkpt><trkpt lat="45.859730981859194" lon="11.82176310784795"><ele>1152.0</ele><time>2026-05-01T06:44:53Z</time></trkpt><trkpt lat="45.85978383152955" lon="11.82170745317768"><ele>1152.0000000000002</ele><time>2026-05-01T06:45:06Z</time></trkpt><trkpt lat="45.85982437958876" lon="11.821636844583985"><ele>1152.0</ele><time>2026-05-01T06:45:18Z</time></trkpt><trkpt lat="45.85989216563429" lon="11.821613400820768"><ele>1153.7142857142858</ele><time>2026-05-01T06:49:15Z</time></trkpt><trkpt lat="45.859945293869664" lon="11.821549774735288"><ele>1155.4285714285716</ele><time>2026-05-01T06:49:21Z</time></trkpt><trkpt lat="45.8600046634123" lon="11.821508385699655"><ele>1157.142857142857</ele><time>2026-05-01T06:49:27Z</time></trkpt><trkpt lat="45.860067842313114" lon="11.821462758700651"><ele>1158.857142857143</ele><time>2026-05-01T06:49:34Z</time></trkpt><trkpt lat="45.86012362498149" lon="11.821410174145921"><ele>1160.5714285714284</ele><time>2026-05-01T06:49:39Z</time></trkpt><trkpt lat="45.86016512677523" lon="11.821312088057853"><ele>1162.2857142857142</ele><time>2026-05-01T06:50:02Z</time></trkpt><trkpt lat="45.86013747165883" lon="11.821230279187255"><ele>1164.0</ele><time>2026-05-01T06:50:14Z</time></trkpt><trkpt lat="45.86016337291448" lon="11.821125709423029"><ele>1164.0</ele><time>2026-05-01T06:50:30Z</time></trkpt><trkpt lat="45.86016129093298" lon="11.82102392442555"><ele>1164.0</ele><time>2026-05-01T06:50:53Z</time></trkpt><trkpt lat="45.86016595677021" lon="11.820932209951954"><ele>1164.0</ele><time>2026-05-01T06:51:22Z</time></trkpt><trkpt lat="45.860231444859615" lon="11.820924180240455"><ele>1164.0</ele><time>2026-05-01T06:51:49Z</time></trkpt><trkpt lat="45.860286157323735" lon="11.82086447589407"><ele>1164.0</ele><time>2026-05-01T06:52:23Z</time></trkpt><trkpt lat="45.86030594908264" lon="11.820778326081797"><ele>1164.0</ele><time>2026-05-01T06:52:34Z</time></trkpt><trkpt lat="45.86032552608456" lon="11.820677646410566"><ele>1164.0</ele><time>2026-05-01T06:52:55Z</time></trkpt><trkpt lat="45.86036165656129" lon="11.82058372091898"><ele>1168.2857142857142</ele><time>2026-05-01T06:53:06Z</time></trkpt><trkpt lat="45.86038221298119" lon="11.820498250628836"><ele>1172.5714285714284</ele><time>2026-05-01T06:53:16Z</time></trkpt><trkpt lat="45.86042644511461" lon="11.820356707336414"><ele>1176.857142857143</ele><time>2026-05-01T06:54:03Z</time></trkpt><trkpt lat="45.860446714077135" lon="11.820264812469754"><ele>1181.142857142857</ele><time>2026-05-01T06:54:21Z</time></trkpt><trkpt lat="45.86044091918057" lon="11.82016859531406"><ele>1185.4285714285716</ele><time>2026-05-01T06:54:31Z</time></trkpt><trkpt lat="45.86043004693277" lon="11.820075056816608"><ele>1189.7142857142858</ele><time>2026-05-01T06:54:41Z</time></trkpt><trkpt lat="45.860414223515924" lon="11.819985702294652"><ele>1194.0</ele><time>2026-05-01T06:54:57Z</time></trkpt><trkpt lat="45.86041454862224" lon="11.819888882899235"><ele>1196.857142857143</ele><time>2026-05-01T06:55:05Z</time></trkpt><trkpt lat="45.860398210295486" lon="11.819797619566078"><ele>1199.7142857142858</ele><time>2026-05-01T06:55:12Z</time></trkpt><trkpt lat="45.86035847393246" lon="11.819727016075483"><ele>1202.5714285714284</ele><time>2026-05-01T06:55:26Z</time></trkpt><trkpt lat="45.86032203598575" lon="11.819645922701536"><ele>1205.4285714285716</ele><time>2026-05-01T06:55:35Z</time></trkpt><trkpt lat="45.860330066566114" lon="11.819551928258662"><ele>1208.2857142857142</ele><time>2026-05-01T06:55:46Z</time></trkpt><trkpt lat="45.86032541629739" lon="11.819461735371918"><ele>1211.142857142857</ele><time>2026-05-01T06:56:13Z</time></trkpt><trkpt lat="45.860300678260415" lon="11.819362461395558"><ele>1214.0</ele><time>2026-05-01T06:56:34Z</time></trkpt><trkpt lat="45.86028829807221" lon="11.819272816890674"><ele>1217.7142857142856</ele><time>2026-05-01T06:56:46Z</time></trkpt><trkpt lat="45.86033978427677" lon="11.819201707145641"><ele>1221.4285714285713</ele><time>2026-05-01T06:56:58Z</time></trkpt><trkpt lat="45.86035137858652" lon="11.819111092916751"><ele>1225.142857142857</ele><time>2026-05-01T06:57:07Z</time></trkpt><trkpt lat="45.860406898588465" lon="11.819059570465537"><ele>1228.8571428571427</ele><time>2026-05-01T06:57:25Z</time></trkpt><trkpt lat="45.86045834921922" lon="11.818999415390516"><ele>1232.5714285714284</ele><time>2026-05-01T06:57:34Z</time></trkpt><trkpt lat="45.86049809454752" lon="11.81892888355067"><ele>1236.2857142857142</ele><time>2026-05-01T06:57:46Z</time></trkpt><trkpt lat="45.86052431621642" lon="11.818842744235223"><ele>1240.0</ele><time>2026-05-01T06:57:59Z</time></trkpt><trkpt lat="45.860535343728955" lon="11.818753466771081"><ele>1240.0</ele><time>2026-05-01T06:58:06Z</time></trkpt><trkpt lat="45.86056322397511" lon="11.818660955744742"><ele>1240.0</ele><time>2026-05-01T06:58:16Z</time></trkpt><trkpt lat="45.860598562702094" lon="11.81858364268112"><ele>1240.0</ele><time>2026-05-01T06:58:23Z</time></trkpt><trkpt lat="45.860650657834896" lon="11.81852733192958"><ele>1240.0</ele><time>2026-05-01T06:58:34Z</time></trkpt><trkpt lat="45.8606633716795" lon="11.818428443267488"><ele>1240.0</ele><time>2026-05-01T06:58:57Z</time></trkpt><trkpt lat="45.86071844054361" lon="11.818371622910616"><ele>1240.0</ele><time>2026-05-01T06:59:10Z</time></trkpt><trkpt lat="45.860786088848734" lon="11.818321318277038"><ele>1240.0</ele><time>2026-05-01T06:59:31Z</time></trkpt><trkpt lat="45.860825037335886" lon="11.818244800797144"><ele>1239.857142857143</ele><time>2026-05-01T06:59:51Z</time></trkpt><trkpt lat="45.860874759877035" lon="11.818186363806362"><ele>1239.7142857142858</ele><time>2026-05-01T06:59:58Z</time></trkpt><trkpt lat="45.860915137855756" lon="11.818114540301528"><ele>1239.5714285714284</ele><time>2026-05-01T07:00:13Z</time></trkpt><trkpt lat="45.86096036908115" lon="11.818048237867458"><ele>1239.4285714285716</ele><time>2026-05-01T07:00:28Z</time></trkpt><trkpt lat="45.861007033465" lon="11.817974128207213"><ele>1239.2857142857142</ele><time>2026-05-01T07:01:05Z</time></trkpt><trkpt lat="45.86105591114675" lon="11.817904113815716"><ele>1239.142857142857</ele><time>2026-05-01T07:01:31Z</time></trkpt><trkpt lat="45.86110110952367" lon="11.81781661172142"><ele>1239.0</ele><time>2026-05-01T07:01:50Z</time></trkpt><trkpt lat="45.86111045052781" lon="11.817721393231576"><ele>1243.7142857142858</ele><time>2026-05-01T07:01:57Z</time></trkpt><trkpt lat="45.86114053948856" lon="11.817615207771883"><ele>1248.4285714285716</ele><time>2026-05-01T07:03:40Z</time></trkpt><trkpt lat="45.8611984846076" lon="11.817567211346507"><ele>1253.142857142857</ele><time>2026-05-01T07:04:47Z</time></trkpt><trkpt lat="45.86126493070249" lon="11.817517814086523"><ele>1257.857142857143</ele><time>2026-05-01T07:05:33Z</time></trkpt><trkpt lat="45.86130783147901" lon="11.817451648054622"><ele>1262.5714285714287</ele><time>2026-05-01T07:06:00Z</time></trkpt><trkpt lat="45.86136984658353" lon="11.817427912367318"><ele>1267.2857142857142</ele><time>2026-05-01T07:06:17Z</time></trkpt><trkpt lat="45.861430477174544" lon="11.817385501555856"><ele>1272.0</ele><time>2026-05-01T07:06:26Z</time></trkpt><trkpt lat="45.86149005241953" lon="11.817338912700482"><ele>1272.0</ele><time>2026-05-01T07:06:37Z</time></trkpt><trkpt lat="45.861548353187494" lon="11.81729410507542"><ele>1272.0</ele><time>2026-05-01T07:06:45Z</time></trkpt><trkpt lat="45.86161257901069" lon="11.81726517375352"><ele>1272.0</ele><time>2026-05-01T07:06:55Z</time></trkpt><trkpt lat="45.86165437994731" lon="11.8171841056205"><ele>1272.0</ele><time>2026-05-01T07:07:07Z</time></trkpt><trkpt lat="45.86172044470613" lon="11.817129108576141"><ele>1272.0</ele><time>2026-05-01T07:07:15Z</time></trkpt><trkpt lat="45.861771399755796" lon="11.817073042601791"><ele>1272.0</ele><time>2026-05-01T07:07:22Z</time></trkpt><trkpt lat="45.861827237976854" lon="11.817016211199425"><ele>1272.0</ele><time>2026-05-01T07:07:29Z</time></trkpt><trkpt lat="45.86187611556776" lon="11.816939652962093"><ele>1269.5714285714284</ele><time>2026-05-01T07:07:41Z</time></trkpt><trkpt lat="45.86192568591067" lon="11.816864328269274"><ele>1267.1428571428573</ele><time>2026-05-01T07:07:53Z</time></trkpt><trkpt lat="45.86197619536884" lon="11.816795486774089"><ele>1264.7142857142858</ele><time>2026-05-01T07:08:02Z</time></trkpt><trkpt lat="45.862041334424184" lon="11.816776698413397"><ele>1262.2857142857142</ele><time>2026-05-01T07:08:10Z</time></trkpt><trkpt lat="45.86211564852647" lon="11.816721364955944"><ele>1259.8571428571427</ele><time>2026-05-01T07:08:18Z</time></trkpt><trkpt lat="45.86212379245919" lon="11.816627604223164"><ele>1257.4285714285716</ele><time>2026-05-01T07:08:28Z</time></trkpt><trkpt lat="45.86215917599073" lon="11.816545333723724"><ele>1255.0</ele><time>2026-05-01T07:08:35Z</time></trkpt><trkpt lat="45.86220978132998" lon="11.816479497647375"><ele>1260.7142857142858</ele><time>2026-05-01T07:08:50Z</time></trkpt><trkpt lat="45.86221410707816" lon="11.816385169789763"><ele>1266.4285714285713</ele><time>2026-05-01T07:08:59Z</time></trkpt><trkpt lat="45.8622257561545" lon="11.816295174671815"><ele>1272.142857142857</ele><time>2026-05-01T07:09:10Z</time></trkpt><trkpt lat="45.862255707478646" lon="11.816193277127875"><ele>1277.857142857143</ele><time>2026-05-01T07:09:19Z</time></trkpt><trkpt lat="45.86229177079782" lon="11.816115717706932"><ele>1283.5714285714284</ele><time>2026-05-01T07:09:24Z</time></trkpt><trkpt lat="45.8623257972606" lon="11.8160384209858"><ele>1289.2857142857142</ele><time>2026-05-01T07:09:31Z</time></trkpt><trkpt lat="45.86233203013818" lon="11.815938023026156"><ele>1295.0</ele><time>2026-05-01T07:09:53Z</time></trkpt><trkpt lat="45.86239378537875" lon="11.815891068538749"><ele>1298.7142857142858</ele><time>2026-05-01T07:10:46Z</time></trkpt><trkpt lat="45.862448312116264" lon="11.815842490828977"><ele>1302.4285714285716</ele><time>2026-05-01T07:10:52Z</time></trkpt><trkpt lat="45.86242838706392" lon="11.815755648731718"><ele>1306.142857142857</ele><time>2026-05-01T07:11:12Z</time></trkpt><trkpt lat="45.86242935943854" lon="11.815662019054335"><ele>1309.857142857143</ele><time>2026-05-01T07:11:33Z</time></trkpt><trkpt lat="45.86246771785377" lon="11.815589008625688"><ele>1313.5714285714287</ele><time>2026-05-01T07:11:55Z</time></trkpt><trkpt lat="45.862476674331866" lon="11.815498001769878"><ele>1317.2857142857142</ele><time>2026-05-01T07:12:23Z</time></trkpt><trkpt lat="45.86252342431907" lon="11.81542430282774"><ele>1321.0</ele><time>2026-05-01T07:12:40Z</time></trkpt><trkpt lat="45.86256915834839" lon="11.81534492921786"><ele>1320.7142857142856</ele><time>2026-05-01T07:12:50Z</time></trkpt><trkpt lat="45.8626322412484" lon="11.81527808448841"><ele>1320.4285714285716</ele><time>2026-05-01T07:13:03Z</time></trkpt><trkpt lat="45.86265695962746" lon="11.815170954297686"><ele>1320.142857142857</ele><time>2026-05-01T07:15:27Z</time></trkpt><trkpt lat="45.862706926317" lon="11.815114583471154"><ele>1319.8571428571427</ele><time>2026-05-01T07:15:52Z</time></trkpt><trkpt lat="45.862774279757986" lon="11.815062142683885"><ele>1319.5714285714284</ele><time>2026-05-01T07:16:01Z</time></trkpt><trkpt lat="45.86283139308441" lon="11.815006260632039"><ele>1319.2857142857142</ele><time>2026-05-01T07:16:12Z</time></trkpt><trkpt lat="45.86288418886445" lon="11.814949691359503"><ele>1319.0</ele><time>2026-05-01T07:16:30Z</time></trkpt><trkpt lat="45.86294693408437" lon="11.814917735621798"><ele>1325.7142857142856</ele><time>2026-05-01T07:17:03Z</time></trkpt><trkpt lat="45.86300429227875" lon="11.814854511140894"><ele>1332.4285714285713</ele><time>2026-05-01T07:17:18Z</time></trkpt><trkpt lat="45.86306098040407" lon="11.814778053449118"><ele>1339.142857142857</ele><time>2026-05-01T07:17:24Z</time></trkpt><trkpt lat="45.86310667823802" lon="11.814707936870768"><ele>1345.8571428571427</ele><time>2026-05-01T07:17:31Z</time></trkpt><trkpt lat="45.86315182965763" lon="11.8146304664985"><ele>1352.5714285714284</ele><time>2026-05-01T07:18:02Z</time></trkpt><trkpt lat="45.86321613018644" lon="11.81459456652143"><ele>1359.2857142857142</ele><time>2026-05-01T07:18:22Z</time></trkpt><trkpt lat="45.86324019954591" lon="11.814500876000244"><ele>1366.0</ele><time>2026-05-01T07:18:43Z</time></trkpt><trkpt lat="45.86327483248478" lon="11.814410089406666"><ele>1366.0</ele><time>2026-05-01T07:18:58Z</time></trkpt><trkpt lat="45.8633246632933" lon="11.814349823348183"><ele>1366.0</ele><time>2026-05-01T07:19:26Z</time></trkpt><trkpt lat="45.86337325692181" lon="11.814264890532248"><ele>1366.0</ele><time>2026-05-01T07:19:58Z</time></trkpt><trkpt lat="45.863373265851145" lon="11.814172527632156"><ele>1366.0</ele><time>2026-05-01T07:20:44Z</time></trkpt><trkpt lat="45.8633400826887" lon="11.814076086554088"><ele>1366.0</ele><time>2026-05-01T07:21:20Z</time></trkpt><trkpt lat="45.86336712191274" lon="11.813983352280154"><ele>1366.0</ele><time>2026-05-01T07:22:05Z</time></trkpt><trkpt lat="45.86343092298407" lon="11.81399285994385"><ele>1366.0</ele><time>2026-05-01T07:22:13Z</time></trkpt><trkpt lat="45.86349561935375" lon="11.813969476939203"><ele>1376.5</ele><time>2026-05-01T07:24:49Z</time></trkpt><trkpt lat="45.86356933621625" lon="11.813976640437694"><ele>1387.0</ele><time>2026-05-01T07:25:22Z</time></trkpt><trkpt lat="45.86362998321916" lon="11.813925981159484"><ele>1397.5</ele><time>2026-05-01T07:26:04Z</time></trkpt><trkpt lat="45.86369560716818" lon="11.813889962764529"><ele>1408.0</ele><time>2026-05-01T07:27:24Z</time></trkpt><trkpt lat="45.86375929694179" lon="11.813861369304878"><ele>1418.5</ele><time>2026-05-01T07:27:43Z</time></trkpt><trkpt lat="45.863895306178634" lon="11.813791712348282"><ele>1429.0</ele><time>2026-05-01T07:29:06Z</time></trkpt><trkpt lat="45.86393734727622" lon="11.813688812005333"><ele>1429.0</ele><time>2026-05-01T07:35:11Z</time></trkpt><trkpt lat="45.864015583224955" lon="11.813685656085205"><ele>1429.0</ele><time>2026-05-01T07:35:44Z</time></trkpt><trkpt lat="45.864065887570945" lon="11.813573498859679"><ele>1429.0</ele><time>2026-05-01T07:36:09Z</time></trkpt><trkpt lat="45.86403330136453" lon="11.813491440437165"><ele>1429.0</ele><time>2026-05-01T07:36:26Z</time></trkpt><trkpt lat="45.864067643376174" lon="11.813410386160427"><ele>1429.0</ele><time>2026-05-01T07:36:40Z</time></trkpt><trkpt lat="45.86409689757581" lon="11.813328715249378"><ele>1429.0</ele><time>2026-05-01T07:36:52Z</time></trkpt><trkpt lat="45.86406524191562" lon="11.81324848878011"><ele>1429.0</ele><time>2026-05-01T07:37:06Z</time></trkpt><trkpt lat="45.8640141660338" lon="11.813193821785555"><ele>1433.5714285714287</ele><time>2026-05-01T07:37:12Z</time></trkpt><trkpt lat="45.86399549123697" lon="11.813095886511764"><ele>1438.142857142857</ele><time>2026-05-01T07:37:23Z</time></trkpt><trkpt lat="45.86394164405216" lon="11.813037503751328"><ele>1442.7142857142858</ele><time>2026-05-01T07:37:29Z</time></trkpt><trkpt lat="45.8639247074215" lon="11.812942386447041"><ele>1447.2857142857142</ele><time>2026-05-01T07:38:45Z</time></trkpt><trkpt lat="45.86399294934379" lon="11.812951407545446"><ele>1451.857142857143</ele><time>2026-05-01T07:39:36Z</time></trkpt><trkpt lat="45.86405836186364" lon="11.812953796553245"><ele>1456.4285714285713</ele><time>2026-05-01T07:39:45Z</time></trkpt><trkpt lat="45.86412563042998" lon="11.81295313152735"><ele>1461.0</ele><time>2026-05-01T07:39:54Z</time></trkpt><trkpt lat="45.8641912618418" lon="11.812911669507647"><ele>1461.0</ele><time>2026-05-01T07:40:02Z</time></trkpt><trkpt lat="45.864247076611626" lon="11.812857661880132"><ele>1461.0</ele><time>2026-05-01T07:40:07Z</time></trkpt><trkpt lat="45.8643138721274" lon="11.812847740593721"><ele>1461.0</ele><time>2026-05-01T07:40:16Z</time></trkpt><trkpt lat="45.864381366201954" lon="11.812829166720341"><ele>1461.0</ele><time>2026-05-01T07:40:24Z</time></trkpt><trkpt lat="45.86445227156202" lon="11.812823411687338"><ele>1461.0</ele><time>2026-05-01T07:40:31Z</time></trkpt><trkpt lat="45.86450428194861" lon="11.812770827394111"><ele>1461.0</ele><time>2026-05-01T07:40:41Z</time></trkpt><trkpt lat="45.86452978751007" lon="11.812687057906112"><ele>1461.0</ele><time>2026-05-01T07:40:54Z</time></trkpt><trkpt lat="45.864553734907524" lon="11.812600290397237"><ele>1461.2857142857142</ele><time>2026-05-01T07:41:06Z</time></trkpt><trkpt lat="45.86459013178289" lon="11.812515898495413"><ele>1461.5714285714287</ele><time>2026-05-01T07:41:16Z</time></trkpt><trkpt lat="45.86461117250845" lon="11.812429237617058"><ele>1461.857142857143</ele><time>2026-05-01T07:41:26Z</time></trkpt><trkpt lat="45.86463071113444" lon="11.812337909125269"><ele>1462.142857142857</ele><time>2026-05-01T07:41:35Z</time></trkpt><trkpt lat="45.86464097745399" lon="11.812243040420281"><ele>1462.4285714285716</ele><time>2026-05-01T07:41:44Z</time></trkpt><trkpt lat="45.864705605239216" lon="11.812213735093097"><ele>1462.7142857142858</ele><time>2026-05-01T07:41:55Z</time></trkpt><trkpt lat="45.86476247123824" lon="11.812168333038931"><ele>1463.0</ele><time>2026-05-01T07:42:19Z</time></trkpt><trkpt lat="45.86481138551857" lon="11.812109441519898"><ele>1463.0</ele><time>2026-05-01T07:42:34Z</time></trkpt><trkpt lat="45.86488631733139" lon="11.812078138325608"><ele>1463.0</ele><time>2026-05-01T07:42:44Z</time></trkpt><trkpt lat="45.864955050456125" lon="11.812052506048458"><ele>1463.0</ele><time>2026-05-01T07:42:57Z</time></trkpt><trkpt lat="45.86500981294149" lon="11.8120051699602"><ele>1463.0</ele><time>2026-05-01T07:43:02Z</time></trkpt><trkpt lat="45.8650719770495" lon="11.811978822761862"><ele>1463.0</ele><time>2026-05-01T07:43:09Z</time></trkpt><trkpt lat="45.865128025460706" lon="11.811914161091382"><ele>1463.0</ele><time>2026-05-01T07:43:18Z</time></trkpt><trkpt lat="45.86517896468022" lon="11.811854525135221"><ele>1463.0</ele><time>2026-05-01T07:43:25Z</time></trkpt><trkpt lat="45.865238861885764" lon="11.811800694285289"><ele>1464.142857142857</ele><time>2026-05-01T07:43:42Z</time></trkpt><trkpt lat="45.865304226123385" lon="11.811755240317373"><ele>1465.2857142857142</ele><time>2026-05-01T07:44:12Z</time></trkpt><trkpt lat="45.86537503808685" lon="11.811761186182206"><ele>1466.4285714285716</ele><time>2026-05-01T07:44:23Z</time></trkpt><trkpt lat="45.86544483380918" lon="11.811741102250132"><ele>1467.5714285714284</ele><time>2026-05-01T07:44:29Z</time></trkpt><trkpt lat="45.86552269109398" lon="11.811751242035847"><ele>1468.7142857142858</ele><time>2026-05-01T07:44:35Z</time></trkpt><trkpt lat="45.86558939642263" lon="11.811744278503841"><ele>1469.857142857143</ele><time>2026-05-01T07:44:40Z</time></trkpt><trkpt lat="45.86561789291641" lon="11.811635469588534"><ele>1471.0</ele><time>2026-05-01T07:45:45Z</time></trkpt><trkpt lat="45.86563459714818" lon="11.811547969242575"><ele>1471.0</ele><time>2026-05-01T07:45:50Z</time></trkpt><trkpt lat="45.86568085314701" lon="11.811474917106633"><ele>1471.0</ele><time>2026-05-01T07:45:56Z</time></trkpt><trkpt lat="45.86572865225068" lon="11.811407750376022"><ele>1471.0</ele><time>2026-05-01T07:46:03Z</time></trkpt><trkpt lat="45.865764258451755" lon="11.811328441907627"><ele>1471.0</ele><time>2026-05-01T07:46:09Z</time></trkpt><trkpt lat="45.865802731678734" lon="11.81124210137257"><ele>1471.0</ele><time>2026-05-01T07:46:14Z</time></trkpt><trkpt lat="45.865855340349725" lon="11.811175122294053"><ele>1471.0</ele><time>2026-05-01T07:46:23Z</time></trkpt><trkpt lat="45.865913129078876" lon="11.811122204677911"><ele>1471.0</ele><time>2026-05-01T07:46:29Z</time></trkpt><trkpt lat="45.86596980560988" lon="11.811045385609292"><ele>1472.7142857142858</ele><time>2026-05-01T07:46:35Z</time></trkpt><trkpt lat="45.86602262898015" lon="11.81099157095736"><ele>1474.4285714285716</ele><time>2026-05-01T07:46:41Z</time></trkpt><trkpt lat="45.86606574785834" lon="11.810921186602034"><ele>1476.142857142857</ele><time>2026-05-01T07:46:46Z</time></trkpt><trkpt lat="45.8661140359857" lon="11.810862669452595"><ele>1477.857142857143</ele><time>2026-05-01T07:46:53Z</time></trkpt><trkpt lat="45.8661559159335" lon="11.810760162216493"><ele>1479.5714285714284</ele><time>2026-05-01T07:47:00Z</time></trkpt><trkpt lat="45.86618579682012" lon="11.81067663637465"><ele>1481.2857142857142</ele><time>2026-05-01T07:47:07Z</time></trkpt><trkpt lat="45.86624679108326" lon="11.810643232038315"><ele>1483.0</ele><time>2026-05-01T07:47:15Z</time></trkpt><trkpt lat="45.86631374590397" lon="11.81060845850407"><ele>1483.0</ele><time>2026-05-01T07:47:23Z</time></trkpt><trkpt lat="45.86636395759331" lon="11.810551195246228"><ele>1483.0</ele><time>2026-05-01T07:47:29Z</time></trkpt><trkpt lat="45.86642486296877" lon="11.810509070977286"><ele>1483.0</ele><time>2026-05-01T07:47:35Z</time></trkpt><trkpt lat="45.86648837364941" lon="11.81046233622844"><ele>1483.0</ele><time>2026-05-01T07:47:41Z</time></trkpt><trkpt lat="45.86656287040602" lon="11.810453444177979"><ele>1483.0</ele><time>2026-05-01T07:47:48Z</time></trkpt><trkpt lat="45.86662136142694" lon="11.810418806094129"><ele>1483.0</ele><time>2026-05-01T07:47:53Z</time></trkpt><trkpt lat="45.86667926628538" lon="11.810378926295153"><ele>1483.0</ele><time>2026-05-01T07:47:59Z</time></trkpt><trkpt lat="45.86673354425086" lon="11.810331748083964"><ele>1482.4285714285713</ele><time>2026-05-01T07:48:04Z</time></trkpt><trkpt lat="45.86679926175811" lon="11.810288293758006"><ele>1481.8571428571427</ele><time>2026-05-01T07:48:09Z</time></trkpt><trkpt lat="45.86684823336363" lon="11.810231334156633"><ele>1481.2857142857142</ele><time>2026-05-01T07:48:14Z</time></trkpt><trkpt lat="45.86689010439805" lon="11.810157733760162"><ele>1480.7142857142858</ele><time>2026-05-01T07:48:19Z</time></trkpt><trkpt lat="45.86690879257894" lon="11.810053179662331"><ele>1480.142857142857</ele><time>2026-05-01T07:48:25Z</time></trkpt><trkpt lat="45.86694487926409" lon="11.809975304574373"><ele>1479.5714285714287</ele><time>2026-05-01T07:48:30Z</time></trkpt><trkpt lat="45.86699184929502" lon="11.809901971641445"><ele>1479.0</ele><time>2026-05-01T07:48:36Z</time></trkpt><trkpt lat="45.86700335508763" lon="11.809812842775498"><ele>1478.857142857143</ele><time>2026-05-01T07:48:41Z</time></trkpt><trkpt lat="45.86704890884976" lon="11.809722501745638"><ele>1478.7142857142856</ele><time>2026-05-01T07:48:49Z</time></trkpt><trkpt lat="45.867080597121834" lon="11.80963047746163"><ele>1478.5714285714284</ele><time>2026-05-01T07:48:59Z</time></trkpt><trkpt lat="45.86714499764328" lon="11.809593455207573"><ele>1478.4285714285716</ele><time>2026-05-01T07:49:05Z</time></trkpt><trkpt lat="45.86719944620443" lon="11.809532175909952"><ele>1478.2857142857142</ele><time>2026-05-01T07:49:13Z</time></trkpt><trkpt lat="45.86721539605012" lon="11.809444270505017"><ele>1478.142857142857</ele><time>2026-05-01T07:49:42Z</time></trkpt><trkpt lat="45.86723889564687" lon="11.809358379737063"><ele>1478.0</ele><time>2026-05-01T07:49:49Z</time></trkpt><trkpt lat="45.86729938956671" lon="11.809270230108769"><ele>1478.0</ele><time>2026-05-01T07:50:30Z</time></trkpt><trkpt lat="45.86735221163279" lon="11.809212328094507"><ele>1478.0</ele><time>2026-05-01T07:50:43Z</time></trkpt><trkpt lat="45.8674097728901" lon="11.809164697546331"><ele>1478.0</ele><time>2026-05-01T07:50:48Z</time></trkpt><trkpt lat="45.8674587534543" lon="11.809082115136652"><ele>1478.0</ele><time>2026-05-01T07:50:56Z</time></trkpt><trkpt lat="45.867525404150314" lon="11.809062610426675"><ele>1478.0</ele><time>2026-05-01T07:51:04Z</time></trkpt><trkpt lat="45.867566245491794" lon="11.808984196647938"><ele>1478.0</ele><time>2026-05-01T07:51:16Z</time></trkpt><trkpt lat="45.86761762035589" lon="11.80892317527082"><ele>1478.0</ele><time>2026-05-01T07:51:23Z</time></trkpt><trkpt lat="45.8676604176665" lon="11.808854525928831"><ele>1478.2857142857142</ele><time>2026-05-01T07:51:31Z</time></trkpt><trkpt lat="45.86770052100232" lon="11.808778815511603"><ele>1478.5714285714287</ele><time>2026-05-01T07:51:38Z</time></trkpt><trkpt lat="45.8677418256371" lon="11.808702022550602"><ele>1478.8571428571427</ele><time>2026-05-01T07:51:44Z</time></trkpt><trkpt lat="45.867772725360325" lon="11.808619004925353"><ele>1479.142857142857</ele><time>2026-05-01T07:51:50Z</time></trkpt><trkpt lat="45.867818973054064" lon="11.808540226477042"><ele>1479.4285714285713</ele><time>2026-05-01T07:51:56Z</time></trkpt><trkpt lat="45.86785624894086" lon="11.808464136998737"><ele>1479.7142857142856</ele><time>2026-05-01T07:52:02Z</time></trkpt><trkpt lat="45.867906521588424" lon="11.808399949475161"><ele>1480.0</ele><time>2026-05-01T07:52:09Z</time></trkpt><trkpt lat="45.86795040148211" lon="11.808334751572579"><ele>1482.5714285714284</ele><time>2026-05-01T07:52:18Z</time></trkpt><trkpt lat="45.868004372634225" lon="11.808275535689573"><ele>1485.142857142857</ele><time>2026-05-01T07:52:27Z</time></trkpt><trkpt lat="45.868056518371425" lon="11.808205868328335"><ele>1487.7142857142858</ele><time>2026-05-01T07:52:36Z</time></trkpt><trkpt lat="45.86810716072625" lon="11.808139989391142"><ele>1490.2857142857142</ele><time>2026-05-01T07:52:43Z</time></trkpt><trkpt lat="45.86815187453646" lon="11.808064439307246"><ele>1492.857142857143</ele><time>2026-05-01T07:52:51Z</time></trkpt><trkpt lat="45.86819366495086" lon="11.807992802689599"><ele>1495.4285714285713</ele><time>2026-05-01T07:52:58Z</time></trkpt><trkpt lat="45.86824152679602" lon="11.807920595895805"><ele>1498.0</ele><time>2026-05-01T07:53:05Z</time></trkpt><trkpt lat="45.868274402324204" lon="11.80783288410563"><ele>1498.0</ele><time>2026-05-01T07:53:12Z</time></trkpt><trkpt lat="45.86831937067026" lon="11.807746798701443"><ele>1498.0</ele><time>2026-05-01T07:53:18Z</time></trkpt><trkpt lat="45.86837102478459" lon="11.8076680383776"><ele>1498.0</ele><time>2026-05-01T07:53:25Z</time></trkpt><trkpt lat="45.868426915417274" lon="11.807623226608744"><ele>1498.0</ele><time>2026-05-01T07:53:31Z</time></trkpt><trkpt lat="45.8684718223707" lon="11.807559701432504"><ele>1498.0</ele><time>2026-05-01T07:53:37Z</time></trkpt><trkpt lat="45.86846084922439" lon="11.807469451296818"><ele>1498.0</ele><time>2026-05-01T07:53:44Z</time></trkpt><trkpt lat="45.868486956774674" lon="11.807386796170327"><ele>1498.0</ele><time>2026-05-01T07:54:10Z</time></trkpt><trkpt lat="45.868467885048766" lon="11.807290755428287"><ele>1503.0</ele><time>2026-05-01T07:54:34Z</time></trkpt><trkpt lat="45.86845118880318" lon="11.807201467245845"><ele>1508.0</ele><time>2026-05-01T08:04:30Z</time></trkpt><trkpt lat="45.86849597917868" lon="11.807272485228033"><ele>1513.0</ele><time>2026-05-01T08:04:36Z</time></trkpt><trkpt lat="45.86851799799193" lon="11.807184100571401"><ele>1518.0</ele><time>2026-05-01T08:04:50Z</time></trkpt><trkpt lat="45.86854489574618" lon="11.80709754222008"><ele>1523.0</ele><time>2026-05-01T08:05:04Z</time></trkpt><trkpt lat="45.86855827285439" lon="11.807003836617127"><ele>1528.0</ele><time>2026-05-01T08:05:16Z</time></trkpt><trkpt lat="45.86860903605564" lon="11.806949221140124"><ele>1533.0</ele><time>2026-05-01T08:05:25Z</time></trkpt><trkpt lat="45.86867232652726" lon="11.8069052649382"><ele>1533.5714285714287</ele><time>2026-05-01T08:05:33Z</time></trkpt><trkpt lat="45.86869312739577" lon="11.806801372416505"><ele>1534.142857142857</ele><time>2026-05-01T08:05:42Z</time></trkpt><trkpt lat="45.86873797773292" lon="11.806710281431922"><ele>1534.7142857142858</ele><time>2026-05-01T08:05:50Z</time></trkpt><trkpt lat="45.868734052165706" lon="11.80661503379168"><ele>1535.2857142857142</ele><time>2026-05-01T08:05:57Z</time></trkpt><trkpt lat="45.868768955533234" lon="11.806539108825875"><ele>1535.857142857143</ele><time>2026-05-01T08:06:05Z</time></trkpt><trkpt lat="45.86880867569662" lon="11.806466024515636"><ele>1536.4285714285716</ele><time>2026-05-01T08:06:12Z</time></trkpt><trkpt lat="45.868845032260595" lon="11.806388100694639"><ele>1537.0</ele><time>2026-05-01T08:06:50Z</time></trkpt><trkpt lat="45.8688860317283" lon="11.806304191055276"><ele>1537.0000000000002</ele><time>2026-05-01T08:06:59Z</time></trkpt><trkpt lat="45.86892097778704" lon="11.806220970370717"><ele>1537.0</ele><time>2026-05-01T08:07:16Z</time></trkpt><trkpt lat="45.86897784876388" lon="11.806155169863747"><ele>1537.0</ele><time>2026-05-01T08:07:26Z</time></trkpt><trkpt lat="45.869012186476795" lon="11.80607115933837"><ele>1537.0</ele><time>2026-05-01T08:07:37Z</time></trkpt><trkpt lat="45.86906353939963" lon="11.80600617765768"><ele>1537.0</ele><time>2026-05-01T08:07:57Z</time></trkpt><trkpt lat="45.86911305723896" lon="11.805941937402757"><ele>1537.0000000000002</ele><time>2026-05-01T08:08:05Z</time></trkpt><trkpt lat="45.8691602368463" lon="11.805877121585684"><ele>1537.0</ele><time>2026-05-01T08:08:13Z</time></trkpt><trkpt lat="45.86920987903123" lon="11.805797323180851"><ele>1538.5714285714287</ele><time>2026-05-01T08:08:22Z</time></trkpt><trkpt lat="45.86926570260336" lon="11.805748505239135"><ele>1540.142857142857</ele><time>2026-05-01T08:08:30Z</time></trkpt><trkpt lat="45.869300343738" lon="11.805669061035642"><ele>1541.7142857142858</ele><time>2026-05-01T08:08:39Z</time></trkpt><trkpt lat="45.86935926892354" lon="11.805628251797332"><ele>1543.2857142857142</ele><time>2026-05-01T08:08:56Z</time></trkpt><trkpt lat="45.86942212843886" lon="11.805584443706811"><ele>1544.857142857143</ele><time>2026-05-01T08:09:12Z</time></trkpt><trkpt lat="45.86947536658624" lon="11.805535046118548"><ele>1546.4285714285716</ele><time>2026-05-01T08:09:30Z</time></trkpt><trkpt lat="45.86954239281525" lon="11.805493390535943"><ele>1548.0</ele><time>2026-05-01T08:09:58Z</time></trkpt><trkpt lat="45.869598772240444" lon="11.805446357001589"><ele>1549.857142857143</ele><time>2026-05-01T08:10:09Z</time></trkpt><trkpt lat="45.86964284158716" lon="11.805380963507035"><ele>1551.7142857142858</ele><time>2026-05-01T08:10:25Z</time></trkpt><trkpt lat="45.869706010517014" lon="11.805355433362513"><ele>1553.5714285714284</ele><time>2026-05-01T08:11:11Z</time></trkpt><trkpt lat="45.869771030159534" lon="11.80532557447438"><ele>1555.4285714285716</ele><time>2026-05-01T08:11:25Z</time></trkpt><trkpt lat="45.86983289963232" lon="11.805376105443614"><ele>1557.2857142857142</ele><time>2026-05-01T08:11:38Z</time></trkpt><trkpt lat="45.86989902976539" lon="11.805403335972557"><ele>1559.142857142857</ele><time>2026-05-01T08:11:49Z</time></trkpt><trkpt lat="45.86995891313135" lon="11.805324252300702"><ele>1561.0</ele><time>2026-05-01T08:13:12Z</time></trkpt><trkpt lat="45.87003074117463" lon="11.805282881015183"><ele>1561.0</ele><time>2026-05-01T08:13:31Z</time></trkpt><trkpt lat="45.87008174181063" lon="11.805218025713174"><ele>1561.0</ele><time>2026-05-01T08:13:49Z</time></trkpt><trkpt lat="45.87011102511057" lon="11.805137188300575"><ele>1561.0</ele><time>2026-05-01T08:13:58Z</time></trkpt><trkpt lat="45.87012970142591" lon="11.805046200299453"><ele>1561.0</ele><time>2026-05-01T08:14:11Z</time></trkpt><trkpt lat="45.87016099823573" lon="11.804962260465151"><ele>1561.0</ele><time>2026-05-01T08:14:24Z</time></trkpt><trkpt lat="45.87021476054234" lon="11.8049001657823"><ele>1561.0</ele><time>2026-05-01T08:14:37Z</time></trkpt><trkpt lat="45.87024408472194" lon="11.804812517705559"><ele>1561.0</ele><time>2026-05-01T08:14:50Z</time></trkpt><trkpt lat="45.870288890270515" lon="11.804748264311181"><ele>1562.5714285714287</ele><time>2026-05-01T08:14:59Z</time></trkpt><trkpt lat="45.870337080399395" lon="11.804685039327595"><ele>1564.142857142857</ele><time>2026-05-01T08:15:06Z</time></trkpt><trkpt lat="45.87038055834296" lon="11.804601064338868"><ele>1565.7142857142858</ele><time>2026-05-01T08:15:14Z</time></trkpt><trkpt lat="45.87040638624212" lon="11.804507561282326"><ele>1567.2857142857142</ele><time>2026-05-01T08:15:28Z</time></trkpt><trkpt lat="45.87044347139022" lon="11.804432868452839"><ele>1568.857142857143</ele><time>2026-05-01T08:15:36Z</time></trkpt><trkpt lat="45.87048541648762" lon="11.804358914261208"><ele>1570.4285714285716</ele><time>2026-05-01T08:15:44Z</time></trkpt><trkpt lat="45.87053655850365" lon="11.804288714096687"><ele>1572.0</ele><time>2026-05-01T08:15:51Z</time></trkpt><trkpt lat="45.87058943574113" lon="11.80421956817563"><ele>1577.0000000000002</ele><time>2026-05-01T08:15:59Z</time></trkpt><trkpt lat="45.87062721502777" lon="11.804146323444202"><ele>1582.0</ele><time>2026-05-01T08:16:13Z</time></trkpt><trkpt lat="45.87067463777677" lon="11.804085957203817"><ele>1587.0</ele><time>2026-05-01T08:16:35Z</time></trkpt><trkpt lat="45.87072207578326" lon="11.804019743114635"><ele>1592.0</ele><time>2026-05-01T08:16:48Z</time></trkpt><trkpt lat="45.87077092097897" lon="11.803953748982796"><ele>1597.0</ele><time>2026-05-01T08:17:16Z</time></trkpt><trkpt lat="45.87082280971081" lon="11.803888035305969"><ele>1602.0000000000002</ele><time>2026-05-01T08:17:27Z</time></trkpt><trkpt lat="45.8708639883821" lon="11.803819091486204"><ele>1607.0</ele><time>2026-05-01T08:17:38Z</time></trkpt><trkpt lat="45.870903319290385" lon="11.80374454472791"><ele>1607.5714285714287</ele><time>2026-05-01T08:18:05Z</time></trkpt><trkpt lat="45.87095191844792" lon="11.803686799499888"><ele>1608.142857142857</ele><time>2026-05-01T08:21:42Z</time></trkpt><trkpt lat="45.87099885132855" lon="11.803617387403575"><ele>1608.7142857142858</ele><time>2026-05-01T08:21:51Z</time></trkpt><trkpt lat="45.87104347756739" lon="11.803542571672612"><ele>1609.2857142857142</ele><time>2026-05-01T08:22:00Z</time></trkpt><trkpt lat="45.87109968946386" lon="11.803465545569718"><ele>1609.857142857143</ele><time>2026-05-01T08:22:10Z</time></trkpt><trkpt lat="45.87112681250659" lon="11.803370581560197"><ele>1610.4285714285716</ele><time>2026-05-01T08:22:23Z</time></trkpt><trkpt lat="45.87117076540839" lon="11.803302121657117"><ele>1611.0</ele><time>2026-05-01T08:22:31Z</time></trkpt><trkpt lat="45.8712146100786" lon="11.803232860291098"><ele>1615.0</ele><time>2026-05-01T08:22:40Z</time></trkpt><trkpt lat="45.87126184888887" lon="11.80316794501185"><ele>1619.0</ele><time>2026-05-01T08:22:47Z</time></trkpt><trkpt lat="45.8713126643928" lon="11.803098914694543"><ele>1623.0</ele><time>2026-05-01T08:22:54Z</time></trkpt><trkpt lat="45.871376846053096" lon="11.803059157101531"><ele>1627.0</ele><time>2026-05-01T08:23:01Z</time></trkpt><trkpt lat="45.87142651277712" lon="11.802992922212864"><ele>1631.0</ele><time>2026-05-01T08:23:18Z</time></trkpt><trkpt lat="45.871475798269174" lon="11.802922131173187"><ele>1635.0</ele><time>2026-05-01T08:23:25Z</time></trkpt><trkpt lat="45.87151945250294" lon="11.802854769444044"><ele>1639.0</ele><time>2026-05-01T08:23:33Z</time></trkpt><trkpt lat="45.87157241768871" lon="11.802791196473347"><ele>1639.0</ele><time>2026-05-01T08:23:42Z</time></trkpt><trkpt lat="45.87163916214651" lon="11.802752207896049"><ele>1639.0</ele><time>2026-05-01T08:23:53Z</time></trkpt><trkpt lat="45.87169797781226" lon="11.802715614067859"><ele>1639.0</ele><time>2026-05-01T08:24:04Z</time></trkpt><trkpt lat="45.87174672182746" lon="11.802652485987016"><ele>1639.0</ele><time>2026-05-01T08:24:12Z</time></trkpt><trkpt lat="45.87181345455708" lon="11.802627029837721"><ele>1639.0</ele><time>2026-05-01T08:24:25Z</time></trkpt><trkpt lat="45.87187888710516" lon="11.802596522970113"><ele>1639.0</ele><time>2026-05-01T08:24:55Z</time></trkpt><trkpt lat="45.87191658505296" lon="11.802515909216394"><ele>1639.0</ele><time>2026-05-01T08:25:06Z</time></trkpt><trkpt lat="45.87193841453157" lon="11.80242664204038"><ele>1646.5714285714287</ele><time>2026-05-01T08:25:16Z</time></trkpt><trkpt lat="45.871987324020644" lon="11.802359873838265"><ele>1654.1428571428573</ele><time>2026-05-01T08:25:29Z</time></trkpt><trkpt lat="45.872036495018996" lon="11.802303007171988"><ele>1661.7142857142858</ele><time>2026-05-01T08:25:40Z</time></trkpt><trkpt lat="45.87209638375652" lon="11.802259519058264"><ele>1669.2857142857142</ele><time>2026-05-01T08:25:50Z</time></trkpt><trkpt lat="45.87214026704133" lon="11.802178935326381"><ele>1676.857142857143</ele><time>2026-05-01T08:26:06Z</time></trkpt><trkpt lat="45.872207490156214" lon="11.802148558198317"><ele>1684.4285714285713</ele><time>2026-05-01T08:26:18Z</time></trkpt><trkpt lat="45.87226108325313" lon="11.802210034417898"><ele>1692.0</ele><time>2026-05-01T08:26:28Z</time></trkpt><trkpt lat="45.87229574188752" lon="11.802291473540583"><ele>1692.0</ele><time>2026-05-01T08:26:38Z</time></trkpt><trkpt lat="45.87236410012748" lon="11.80226405260535"><ele>1692.0</ele><time>2026-05-01T08:27:32Z</time></trkpt><trkpt lat="45.87239469843321" lon="11.802349223213954"><ele>1692.0</ele><time>2026-05-01T08:27:44Z</time></trkpt><trkpt lat="45.872429231709546" lon="11.802427628135751"><ele>1692.0</ele><time>2026-05-01T08:27:57Z</time></trkpt><trkpt lat="45.87248392301222" lon="11.80248898007508"><ele>1692.0</ele><time>2026-05-01T08:28:12Z</time></trkpt><trkpt lat="45.87254405845707" lon="11.802453901112528"><ele>1692.0</ele><time>2026-05-01T08:28:34Z</time></trkpt><trkpt lat="45.872592564300035" lon="11.802339442678363"><ele>1692.0</ele><time>2026-05-01T08:28:55Z</time></trkpt><trkpt lat="45.872617980189" lon="11.802254381588762"><ele>1696.2857142857142</ele><time>2026-05-01T08:29:07Z</time></trkpt><trkpt lat="45.8726187966752" lon="11.802161007686962"><ele>1700.5714285714287</ele><time>2026-05-01T08:29:20Z</time></trkpt><trkpt lat="45.87264129640891" lon="11.802070362353744"><ele>1704.857142857143</ele><time>2026-05-01T08:29:34Z</time></trkpt><trkpt lat="45.87265900171907" lon="11.801979028102876"><ele>1709.142857142857</ele><time>2026-05-01T08:29:50Z</time></trkpt><trkpt lat="45.87266515745152" lon="11.802069941697571"><ele>1713.4285714285716</ele><time>2026-05-01T08:30:15Z</time></trkpt><trkpt lat="45.87268717984942" lon="11.802165662793703"><ele>1717.7142857142858</ele><time>2026-05-01T08:30:21Z</time></trkpt><trkpt lat="45.87272321600531" lon="11.802240922057548"><ele>1722.0</ele><time>2026-05-01T08:30:24Z</time></trkpt><trkpt lat="45.87274020609987" lon="11.802333310457868"><ele>1722.0</ele><time>2026-05-01T08:30:30Z</time></trkpt><trkpt lat="45.87276304558484" lon="11.802425237974708"><ele>1722.0</ele><time>2026-05-01T08:30:36Z</time></trkpt><trkpt lat="45.8727824516374" lon="11.8025168132439"><ele>1722.0</ele><time>2026-05-01T08:30:44Z</time></trkpt><trkpt lat="45.87282372371319" lon="11.802447900550575"><ele>1722.0</ele><time>2026-05-01T08:30:59Z</time></trkpt><trkpt lat="45.87282926339661" lon="11.802350552406855"><ele>1722.0</ele><time>2026-05-01T08:31:08Z</time></trkpt><trkpt lat="45.872868038911285" lon="11.802424133266332"><ele>1722.0</ele><time>2026-05-01T08:31:18Z</time></trkpt><trkpt lat="45.872922901730846" lon="11.802472709655415"><ele>1722.0</ele><time>2026-05-01T08:31:30Z</time></trkpt><trkpt lat="45.8729572989028" lon="11.802557003159956"><ele>1722.0</ele><time>2026-05-01T08:31:39Z</time></trkpt><trkpt lat="45.873010336134016" lon="11.802472942629992"><ele>1722.0</ele><time>2026-05-01T08:31:52Z</time></trkpt><trkpt lat="45.87304637848401" lon="11.802549356918716"><ele>1722.0</ele><time>2026-05-01T08:32:06Z</time></trkpt><trkpt lat="45.873108637555504" lon="11.80258974629473"><ele>1722.0</ele><time>2026-05-01T08:32:12Z</time></trkpt><trkpt lat="45.87314215156952" lon="11.802669462885994"><ele>1722.0</ele><time>2026-05-01T08:32:18Z</time></trkpt><trkpt lat="45.87314597725707" lon="11.802770667103704"><ele>1722.0</ele><time>2026-05-01T08:32:24Z</time></trkpt><trkpt lat="45.87314345836979" lon="11.802870173561827"><ele>1722.0</ele><time>2026-05-01T08:32:30Z</time></trkpt><trkpt lat="45.87316749249189" lon="11.802956105150214"><ele>1721.3999999999999</ele><time>2026-05-01T08:32:40Z</time></trkpt><trkpt lat="45.873184985051964" lon="11.8030466649117"><ele>1720.7999999999997</ele><time>2026-05-01T08:32:54Z</time></trkpt><trkpt lat="45.87323082864406" lon="11.803126177676875"><ele>1720.2</ele><time>2026-05-01T08:33:05Z</time></trkpt><trkpt lat="45.87326305090668" lon="11.803034115473535"><ele>1719.6</ele><time>2026-05-01T08:34:29Z</time></trkpt><trkpt lat="45.87341160074526" lon="11.802848067870386"><ele>1719.0</ele><time>2026-05-01T08:34:59.423Z</time></trkpt><trkpt lat="45.873307829525" lon="11.802938462337822"><ele>1719.0</ele><time>2026-05-01T08:38:38.423Z</time></trkpt><trkpt lat="45.87320838133649" lon="11.803034319917382"><ele>1719.0</ele><time>2026-05-01T08:38:40.999Z</time></trkpt><trkpt lat="45.87327171243696" lon="11.803080865789317"><ele>1719.0</ele><time>2026-05-01T08:38:44.999Z</time></trkpt><trkpt lat="45.873261810881154" lon="11.803179901224205"><ele>1719.0</ele><time>2026-05-01T08:38:50Z</time></trkpt><trkpt lat="45.873347862069" lon="11.80314159928044"><ele>1719.0</ele><time>2026-05-01T08:43:30Z</time></trkpt><trkpt lat="45.873280752763776" lon="11.803206628376708"><ele>1719.0</ele><time>2026-05-01T09:06:04.999Z</time></trkpt><trkpt lat="45.87324907681928" lon="11.803127881706345"><ele>1719.0000000000002</ele><time>2026-05-01T09:06:19.999Z</time></trkpt><trkpt lat="45.87325451731878" lon="11.80303136457557"><ele>1719.0</ele><time>2026-05-01T09:06:33Z</time></trkpt><trkpt lat="45.873275410588164" lon="11.802936790569438"><ele>1719.0</ele><time>2026-05-01T09:06:40Z</time></trkpt><trkpt lat="45.87327708657141" lon="11.80283945260129"><ele>1719.0</ele><time>2026-05-01T09:06:54Z</time></trkpt><trkpt lat="45.87324235745881" lon="11.802761223529492"><ele>1719.0</ele><time>2026-05-01T09:07:02Z</time></trkpt><trkpt lat="45.873218649842045" lon="11.80266399647562"><ele>1719.0000000000002</ele><time>2026-05-01T09:07:11Z</time></trkpt><trkpt lat="45.87319362429373" lon="11.802568090416928"><ele>1719.0</ele><time>2026-05-01T09:07:18Z</time></trkpt><trkpt lat="45.873172751332554" lon="11.802473321043605"><ele>1719.4285714285716</ele><time>2026-05-01T09:07:27Z</time></trkpt><trkpt lat="45.87314849167788" lon="11.802371006801028"><ele>1719.857142857143</ele><time>2026-05-01T09:07:35Z</time></trkpt><trkpt lat="45.87312487792984" lon="11.802278439612774"><ele>1720.2857142857142</ele><time>2026-05-01T09:07:43Z</time></trkpt><trkpt lat="45.87309838310838" lon="11.802177775686836"><ele>1720.7142857142858</ele><time>2026-05-01T09:07:52Z</time></trkpt><trkpt lat="45.87306181171493" lon="11.802098042805861"><ele>1721.142857142857</ele><time>2026-05-01T09:08:00Z</time></trkpt><trkpt lat="45.87301902764184" lon="11.802020884922776"><ele>1721.5714285714287</ele><time>2026-05-01T09:08:08Z</time></trkpt><trkpt lat="45.87298732945077" lon="11.801929428140264"><ele>1722.0</ele><time>2026-05-01T09:08:15Z</time></trkpt><trkpt lat="45.87294256270224" lon="11.801860787362942"><ele>1722.5714285714287</ele><time>2026-05-01T09:08:23Z</time></trkpt><trkpt lat="45.87290340080343" lon="11.801787695840043"><ele>1723.142857142857</ele><time>2026-05-01T09:08:29Z</time></trkpt><trkpt lat="45.872880219203836" lon="11.801701443505944"><ele>1723.7142857142858</ele><time>2026-05-01T09:08:33Z</time></trkpt><trkpt lat="45.872834319079274" lon="11.80163764996091"><ele>1724.2857142857142</ele><time>2026-05-01T09:08:39Z</time></trkpt><trkpt lat="45.87278961182196" lon="11.801573464259475"><ele>1724.857142857143</ele><time>2026-05-01T09:08:45Z</time></trkpt><trkpt lat="45.87274098806647" lon="11.801505317398808"><ele>1725.4285714285716</ele><time>2026-05-01T09:08:51Z</time></trkpt><trkpt lat="45.872692199599285" lon="11.801439187670315"><ele>1726.0</ele><time>2026-05-01T09:08:58Z</time></trkpt><trkpt lat="45.8726313076322" lon="11.801380344635172"><ele>1723.4285714285716</ele><time>2026-05-01T09:09:05Z</time></trkpt><trkpt lat="45.87257442851361" lon="11.801334143021895"><ele>1720.857142857143</ele><time>2026-05-01T09:09:12Z</time></trkpt><trkpt lat="45.87251215853845" lon="11.801300684543403"><ele>1718.2857142857142</ele><time>2026-05-01T09:09:19Z</time></trkpt><trkpt lat="45.872441631114675" lon="11.801246049744927"><ele>1715.7142857142858</ele><time>2026-05-01T09:09:43.001Z</time></trkpt><trkpt lat="45.87237693326532" lon="11.80124996061052"><ele>1713.142857142857</ele><time>2026-05-01T09:10:12.001Z</time></trkpt><trkpt lat="45.8723039140361" lon="11.801245116643855"><ele>1710.5714285714287</ele><time>2026-05-01T09:10:22Z</time></trkpt><trkpt lat="45.8722383247335" lon="11.801221610597947"><ele>1708.0</ele><time>2026-05-01T09:10:29Z</time></trkpt><trkpt lat="45.87217521288708" lon="11.801207510952288"><ele>1708.0</ele><time>2026-05-01T09:10:36Z</time></trkpt><trkpt lat="45.87210564075279" lon="11.801201685086014"><ele>1708.0</ele><time>2026-05-01T09:10:42Z</time></trkpt><trkpt lat="45.87203097855764" lon="11.801193963164712"><ele>1708.0</ele><time>2026-05-01T09:10:48Z</time></trkpt><trkpt lat="45.871964799082704" lon="11.801169902199947"><ele>1708.0</ele><time>2026-05-01T09:10:54Z</time></trkpt><trkpt lat="45.871891412191424" lon="11.801160362878585"><ele>1708.0</ele><time>2026-05-01T09:11:00Z</time></trkpt><trkpt lat="45.87182238838973" lon="11.801133833269875"><ele>1708.0</ele><time>2026-05-01T09:11:06Z</time></trkpt><trkpt lat="45.87174935587398" lon="11.801117966556722"><ele>1708.0</ele><time>2026-05-01T09:11:12Z</time></trkpt><trkpt lat="45.87168638183439" lon="11.801096988847323"><ele>1705.2857142857142</ele><time>2026-05-01T09:11:18.001Z</time></trkpt><trkpt lat="45.871617496965186" lon="11.80108546091437"><ele>1702.5714285714284</ele><time>2026-05-01T09:11:24.001Z</time></trkpt><trkpt lat="45.87154347119746" lon="11.801081416146577"><ele>1699.857142857143</ele><time>2026-05-01T09:11:30.001Z</time></trkpt><trkpt lat="45.8714803249942" lon="11.801087263770826"><ele>1697.142857142857</ele><time>2026-05-01T09:11:35.001Z</time></trkpt><trkpt lat="45.87141859827728" lon="11.801115632905882"><ele>1694.4285714285713</ele><time>2026-05-01T09:11:41.001Z</time></trkpt><trkpt lat="45.87135253488498" lon="11.801154503047114"><ele>1691.7142857142858</ele><time>2026-05-01T09:11:47.001Z</time></trkpt><trkpt lat="45.871295604885745" lon="11.80120761538025"><ele>1689.0</ele><time>2026-05-01T09:11:52.001Z</time></trkpt><trkpt lat="45.87124191267643" lon="11.801255361822124"><ele>1689.0</ele><time>2026-05-01T09:11:57.001Z</time></trkpt><trkpt lat="45.871178334291095" lon="11.801298617716135"><ele>1689.0</ele><time>2026-05-01T09:12:03.001Z</time></trkpt><trkpt lat="45.87112386205407" lon="11.801346951256942"><ele>1689.0</ele><time>2026-05-01T09:12:08.001Z</time></trkpt><trkpt lat="45.87106699796114" lon="11.801393268520856"><ele>1689.0</ele><time>2026-05-01T09:12:13.001Z</time></trkpt><trkpt lat="45.871009954779" lon="11.801437380189135"><ele>1689.0</ele><time>2026-05-01T09:12:18.001Z</time></trkpt><trkpt lat="45.870949600008835" lon="11.80147954679516"><ele>1689.0</ele><time>2026-05-01T09:12:23.001Z</time></trkpt><trkpt lat="45.87088840014947" lon="11.801508164492706"><ele>1689.0</ele><time>2026-05-01T09:12:28.001Z</time></trkpt><trkpt lat="45.87082318717747" lon="11.80149980960348"><ele>1689.2857142857144</ele><time>2026-05-01T09:12:33.001Z</time></trkpt><trkpt lat="45.870757053557554" lon="11.801495811817114"><ele>1689.5714285714284</ele><time>2026-05-01T09:12:38.001Z</time></trkpt><trkpt lat="45.87068610399356" lon="11.80148798316155"><ele>1689.857142857143</ele><time>2026-05-01T09:12:44Z</time></trkpt><trkpt lat="45.870617321707336" lon="11.801460567826032"><ele>1690.1428571428573</ele><time>2026-05-01T09:12:50Z</time></trkpt><trkpt lat="45.87054636858521" lon="11.801439676190142"><ele>1690.4285714285716</ele><time>2026-05-01T09:12:56Z</time></trkpt><trkpt lat="45.870481427446094" lon="11.801451398095157"><ele>1690.7142857142858</ele><time>2026-05-01T09:13:01Z</time></trkpt><trkpt lat="45.87041530195265" lon="11.801442880462538"><ele>1691.0</ele><time>2026-05-01T09:13:06Z</time></trkpt><trkpt lat="45.870347069582365" lon="11.80145964745472"><ele>1691.0000000000002</ele><time>2026-05-01T09:13:11.001Z</time></trkpt><trkpt lat="45.870273062944584" lon="11.801475400498992"><ele>1691.0</ele><time>2026-05-01T09:13:17.001Z</time></trkpt><trkpt lat="45.87020733871407" lon="11.801489245670044"><ele>1691.0</ele><time>2026-05-01T09:13:22.001Z</time></trkpt><trkpt lat="45.8701434747409" lon="11.80150386477555"><ele>1691.0</ele><time>2026-05-01T09:13:27.001Z</time></trkpt><trkpt lat="45.87008136991154" lon="11.801529712203884"><ele>1691.0</ele><time>2026-05-01T09:13:32.001Z</time></trkpt><trkpt lat="45.870017779092926" lon="11.801556986494507"><ele>1691.0000000000002</ele><time>2026-05-01T09:13:37.001Z</time></trkpt><trkpt lat="45.869950045737525" lon="11.801574917421298"><ele>1691.0</ele><time>2026-05-01T09:13:42.001Z</time></trkpt><trkpt lat="45.869886660831035" lon="11.801597488430561"><ele>1690.5714285714287</ele><time>2026-05-01T09:13:47.001Z</time></trkpt><trkpt lat="45.869820301289835" lon="11.801610998889739"><ele>1690.142857142857</ele><time>2026-05-01T09:13:52.001Z</time></trkpt><trkpt lat="45.869755468374" lon="11.801636240117436"><ele>1689.7142857142858</ele><time>2026-05-01T09:13:57.001Z</time></trkpt><trkpt lat="45.86969218848015" lon="11.801661026269835"><ele>1689.2857142857142</ele><time>2026-05-01T09:14:02.001Z</time></trkpt><trkpt lat="45.8696292218347" lon="11.801670684469197"><ele>1688.857142857143</ele><time>2026-05-01T09:14:07.001Z</time></trkpt><trkpt lat="45.86956148204037" lon="11.80167335389975"><ele>1688.4285714285716</ele><time>2026-05-01T09:14:12.001Z</time></trkpt><trkpt lat="45.86949557893527" lon="11.801675125151071"><ele>1688.0</ele><time>2026-05-01T09:14:17.001Z</time></trkpt><trkpt lat="45.86943323861434" lon="11.801646391141277"><ele>1688.0</ele><time>2026-05-01T09:14:22.001Z</time></trkpt><trkpt lat="45.86936477241299" lon="11.801617761616738"><ele>1688.0</ele><time>2026-05-01T09:14:27.001Z</time></trkpt><trkpt lat="45.86930033766284" lon="11.801581012672397"><ele>1688.0</ele><time>2026-05-01T09:14:32.001Z</time></trkpt><trkpt lat="45.86925199990743" lon="11.80151855263813"><ele>1688.0</ele><time>2026-05-01T09:14:37.001Z</time></trkpt><trkpt lat="45.86920371101409" lon="11.801459717331264"><ele>1688.0</ele><time>2026-05-01T09:14:42.001Z</time></trkpt><trkpt lat="45.86914916640469" lon="11.80141041434321"><ele>1688.0</ele><time>2026-05-01T09:14:47Z</time></trkpt><trkpt lat="45.8690993656567" lon="11.80134844986366"><ele>1688.0</ele><time>2026-05-01T09:14:52Z</time></trkpt><trkpt lat="45.869050802536464" lon="11.801283897093843"><ele>1689.5714285714287</ele><time>2026-05-01T09:14:57Z</time></trkpt><trkpt lat="45.86900100389238" lon="11.801218476756777"><ele>1691.1428571428573</ele><time>2026-05-01T09:15:02Z</time></trkpt><trkpt lat="45.868944812145514" lon="11.801154618238549"><ele>1692.7142857142858</ele><time>2026-05-01T09:15:08Z</time></trkpt><trkpt lat="45.86888875740078" lon="11.801088811312688"><ele>1694.2857142857142</ele><time>2026-05-01T09:15:13Z</time></trkpt><trkpt lat="45.86883493352057" lon="11.801026521597437"><ele>1695.857142857143</ele><time>2026-05-01T09:15:18Z</time></trkpt><trkpt lat="45.86878477071886" lon="11.800963508116395"><ele>1697.4285714285713</ele><time>2026-05-01T09:15:23Z</time></trkpt><trkpt lat="45.868739408500126" lon="11.800892406859008"><ele>1699.0</ele><time>2026-05-01T09:15:28Z</time></trkpt><trkpt lat="45.86868590629326" lon="11.800811073916206"><ele>1699.0</ele><time>2026-05-01T09:15:33Z</time></trkpt><trkpt lat="45.868637399877635" lon="11.800727740175011"><ele>1699.0</ele><time>2026-05-01T09:15:39Z</time></trkpt><trkpt lat="45.86858204720925" lon="11.80067368395524"><ele>1699.0</ele><time>2026-05-01T09:15:44Z</time></trkpt><trkpt lat="45.86850740538622" lon="11.800687258250635"><ele>1699.0</ele><time>2026-05-01T09:15:49.001Z</time></trkpt><trkpt lat="45.86853282781788" lon="11.80078277563954"><ele>1699.0</ele><time>2026-05-01T09:15:57.001Z</time></trkpt><trkpt lat="45.8685732194304" lon="11.800855815233199"><ele>1699.0</ele><time>2026-05-01T09:16:02.001Z</time></trkpt><trkpt lat="45.868604865243704" lon="11.800939238973905"><ele>1699.0</ele><time>2026-05-01T09:16:06.001Z</time></trkpt><trkpt lat="45.868628076723326" lon="11.801047949422202"><ele>1695.5714285714284</ele><time>2026-05-01T09:16:13.001Z</time></trkpt><trkpt lat="45.86865211586794" lon="11.801135967685793"><ele>1692.1428571428573</ele><time>2026-05-01T09:16:18.001Z</time></trkpt><trkpt lat="45.86867682354644" lon="11.80122438389823"><ele>1688.7142857142858</ele><time>2026-05-01T09:16:23.001Z</time></trkpt><trkpt lat="45.86870744840933" lon="11.801307868467877"><ele>1685.2857142857142</ele><time>2026-05-01T09:16:28.001Z</time></trkpt><trkpt lat="45.868640428115356" lon="11.801332856546772"><ele>1681.8571428571427</ele><time>2026-05-01T09:16:34.001Z</time></trkpt><trkpt lat="45.86859359644755" lon="11.801258608251874"><ele>1678.4285714285716</ele><time>2026-05-01T09:16:42.001Z</time></trkpt><trkpt lat="45.86853816986408" lon="11.801193918122124"><ele>1675.0</ele><time>2026-05-01T09:16:46Z</time></trkpt><trkpt lat="45.8684962219692" lon="11.80112062074197"><ele>1675.0</ele><time>2026-05-01T09:16:51Z</time></trkpt><trkpt lat="45.86845109545808" lon="11.80104756378959"><ele>1675.0</ele><time>2026-05-01T09:16:59Z</time></trkpt><trkpt lat="45.86840501057398" lon="11.800969558655082"><ele>1675.0</ele><time>2026-05-01T09:17:05Z</time></trkpt><trkpt lat="45.86835670682501" lon="11.80089910127681"><ele>1675.0</ele><time>2026-05-01T09:17:11Z</time></trkpt><trkpt lat="45.868307911398" lon="11.800826987737318"><ele>1675.0</ele><time>2026-05-01T09:17:17Z</time></trkpt><trkpt lat="45.86825670163247" lon="11.800757818924797"><ele>1675.0</ele><time>2026-05-01T09:17:23Z</time></trkpt><trkpt lat="45.868199234114506" lon="11.800694862432827"><ele>1675.0</ele><time>2026-05-01T09:17:28Z</time></trkpt><trkpt lat="45.868138759169426" lon="11.800635499438508"><ele>1672.7142857142858</ele><time>2026-05-01T09:17:33Z</time></trkpt><trkpt lat="45.86808419254002" lon="11.800555573560787"><ele>1670.4285714285713</ele><time>2026-05-01T09:17:39Z</time></trkpt><trkpt lat="45.86802984371291" lon="11.800507085655802"><ele>1668.142857142857</ele><time>2026-05-01T09:17:44Z</time></trkpt><trkpt lat="45.867966965078075" lon="11.800448265098234"><ele>1665.857142857143</ele><time>2026-05-01T09:17:49Z</time></trkpt><trkpt lat="45.867895396800556" lon="11.800404763513571"><ele>1663.5714285714284</ele><time>2026-05-01T09:17:54Z</time></trkpt><trkpt lat="45.867822792111696" lon="11.800392429989987"><ele>1661.2857142857142</ele><time>2026-05-01T09:17:59Z</time></trkpt><trkpt lat="45.86775949701735" lon="11.800406172379226"><ele>1659.0</ele><time>2026-05-01T09:18:04Z</time></trkpt><trkpt lat="45.86769708847261" lon="11.80039262969994"><ele>1659.0</ele><time>2026-05-01T09:18:10Z</time></trkpt><trkpt lat="45.8676305959127" lon="11.800381280005038"><ele>1659.0</ele><time>2026-05-01T09:18:15Z</time></trkpt><trkpt lat="45.86755419910866" lon="11.800345636517651"><ele>1659.0</ele><time>2026-05-01T09:18:21Z</time></trkpt><trkpt lat="45.86748586580344" lon="11.800315682096574"><ele>1659.0</ele><time>2026-05-01T09:18:26Z</time></trkpt><trkpt lat="45.867412689456515" lon="11.800296300269451"><ele>1659.0</ele><time>2026-05-01T09:18:31Z</time></trkpt><trkpt lat="45.8673387542214" lon="11.80031035953233"><ele>1659.0</ele><time>2026-05-01T09:18:37Z</time></trkpt><trkpt lat="45.86728111458261" lon="11.800365084937129"><ele>1659.0</ele><time>2026-05-01T09:18:42.001Z</time></trkpt><trkpt lat="45.86722899708202" lon="11.800432044874142"><ele>1655.857142857143</ele><time>2026-05-01T09:18:47.001Z</time></trkpt><trkpt lat="45.86717207149744" lon="11.800489493140947"><ele>1652.7142857142858</ele><time>2026-05-01T09:18:52Z</time></trkpt><trkpt lat="45.867112502801234" lon="11.800529133989125"><ele>1649.5714285714284</ele><time>2026-05-01T09:18:57Z</time></trkpt><trkpt lat="45.86704678379375" lon="11.800539976243536"><ele>1646.4285714285716</ele><time>2026-05-01T09:19:02Z</time></trkpt><trkpt lat="45.86697763086558" lon="11.80052118106457"><ele>1643.2857142857142</ele><time>2026-05-01T09:19:07Z</time></trkpt><trkpt lat="45.866912852976924" lon="11.800492781818626"><ele>1640.142857142857</ele><time>2026-05-01T09:19:12Z</time></trkpt><trkpt lat="45.866853753521276" lon="11.800441722953227"><ele>1637.0</ele><time>2026-05-01T09:19:17Z</time></trkpt><trkpt lat="45.86679411799057" lon="11.800405729156516"><ele>1635.2857142857142</ele><time>2026-05-01T09:19:22Z</time></trkpt><trkpt lat="45.866730850541586" lon="11.800381714446763"><ele>1633.5714285714284</ele><time>2026-05-01T09:19:27Z</time></trkpt><trkpt lat="45.86666618013458" lon="11.800383572041278"><ele>1631.857142857143</ele><time>2026-05-01T09:19:32Z</time></trkpt><trkpt lat="45.86659948542161" lon="11.800412433296325"><ele>1630.142857142857</ele><time>2026-05-01T09:19:38Z</time></trkpt><trkpt lat="45.86653214390031" lon="11.800459784490984"><ele>1628.4285714285716</ele><time>2026-05-01T09:19:44Z</time></trkpt><trkpt lat="45.86645828542784" lon="11.800496281509105"><ele>1626.7142857142858</ele><time>2026-05-01T09:19:50Z</time></trkpt><trkpt lat="45.86639296295835" lon="11.800516061292754"><ele>1625.0</ele><time>2026-05-01T09:19:56Z</time></trkpt><trkpt lat="45.866328527487155" lon="11.800501997341648"><ele>1625.0</ele><time>2026-05-01T09:20:01Z</time></trkpt><trkpt lat="45.86626491162565" lon="11.800452032795812"><ele>1625.0</ele><time>2026-05-01T09:20:07Z</time></trkpt><trkpt lat="45.866193068158324" lon="11.800433953840624"><ele>1625.0</ele><time>2026-05-01T09:20:12Z</time></trkpt><trkpt lat="45.866129712094946" lon="11.800390316355152"><ele>1625.0</ele><time>2026-05-01T09:20:18Z</time></trkpt><trkpt lat="45.866057962123875" lon="11.800361195576034"><ele>1625.0</ele><time>2026-05-01T09:20:24Z</time></trkpt><trkpt lat="45.86598898484502" lon="11.800319943258463"><ele>1625.0</ele><time>2026-05-01T09:20:30Z</time></trkpt><trkpt lat="45.86592217660503" lon="11.800298495058428"><ele>1625.0</ele><time>2026-05-01T09:20:35Z</time></trkpt><trkpt lat="45.865857324373756" lon="11.800280247316762"><ele>1626.0</ele><time>2026-05-01T09:20:40Z</time></trkpt><trkpt lat="45.86580002225537" lon="11.80024039527853"><ele>1627.0</ele><time>2026-05-01T09:20:45Z</time></trkpt><trkpt lat="45.86573573546807" lon="11.800198979849082"><ele>1628.0</ele><time>2026-05-01T09:20:51Z</time></trkpt><trkpt lat="45.8656716609927" lon="11.800168741916796"><ele>1629.0</ele><time>2026-05-01T09:20:56Z</time></trkpt><trkpt lat="45.86560224868694" lon="11.800136856909353"><ele>1630.0</ele><time>2026-05-01T09:21:02Z</time></trkpt><trkpt lat="45.86552081775459" lon="11.800096273881797"><ele>1631.0</ele><time>2026-05-01T09:21:08Z</time></trkpt><trkpt lat="45.865442242781754" lon="11.80009044859628"><ele>1632.0</ele><time>2026-05-01T09:21:14Z</time></trkpt><trkpt lat="45.86537419123721" lon="11.800092821989159"><ele>1632.0</ele><time>2026-05-01T09:21:19Z</time></trkpt><trkpt lat="45.86529902420451" lon="11.800062799209211"><ele>1632.0</ele><time>2026-05-01T09:21:24Z</time></trkpt><trkpt lat="45.86522400393594" lon="11.800030193422113"><ele>1632.0</ele><time>2026-05-01T09:21:30Z</time></trkpt><trkpt lat="45.86513463343695" lon="11.799975597433354"><ele>1632.0</ele><time>2026-05-01T09:21:38Z</time></trkpt><trkpt lat="45.865074105266814" lon="11.799939771252618"><ele>1632.0</ele><time>2026-05-01T09:21:43Z</time></trkpt><trkpt lat="45.8650106653882" lon="11.79992056634246"><ele>1632.0</ele><time>2026-05-01T09:21:48Z</time></trkpt><trkpt lat="45.86494499655116" lon="11.799942935365886"><ele>1629.857142857143</ele><time>2026-05-01T09:21:53Z</time></trkpt><trkpt lat="45.864887327336" lon="11.8000135020849"><ele>1627.7142857142858</ele><time>2026-05-01T09:21:58Z</time></trkpt><trkpt lat="45.864861897467634" lon="11.80010016822908"><ele>1625.5714285714284</ele><time>2026-05-01T09:22:03Z</time></trkpt><trkpt lat="45.86483352950444" lon="11.800182639617482"><ele>1623.4285714285716</ele><time>2026-05-01T09:22:08Z</time></trkpt><trkpt lat="45.8647980087072" lon="11.800274207357988"><ele>1621.2857142857142</ele><time>2026-05-01T09:22:14Z</time></trkpt><trkpt lat="45.864771261104984" lon="11.800373278059068"><ele>1619.142857142857</ele><time>2026-05-01T09:22:19Z</time></trkpt><trkpt lat="45.86474432549553" lon="11.800458612207795"><ele>1617.0</ele><time>2026-05-01T09:22:25Z</time></trkpt><trkpt lat="45.86472901501074" lon="11.800553355639657"><ele>1614.2857142857142</ele><time>2026-05-01T09:22:30Z</time></trkpt><trkpt lat="45.86471538980692" lon="11.80064719130835"><ele>1611.5714285714284</ele><time>2026-05-01T09:22:35Z</time></trkpt><trkpt lat="45.86469545256021" lon="11.800747725790771"><ele>1608.857142857143</ele><time>2026-05-01T09:22:40Z</time></trkpt><trkpt lat="45.864678201261455" lon="11.800842670218664"><ele>1606.142857142857</ele><time>2026-05-01T09:22:45Z</time></trkpt><trkpt lat="45.86465482410758" lon="11.800944780539044"><ele>1603.4285714285713</ele><time>2026-05-01T09:22:50Z</time></trkpt><trkpt lat="45.864633201668404" lon="11.801051342461415"><ele>1600.7142857142858</ele><time>2026-05-01T09:22:56Z</time></trkpt><trkpt lat="45.86460800072883" lon="11.801148597733185"><ele>1598.0</ele><time>2026-05-01T09:23:01Z</time></trkpt><trkpt lat="45.86459388978404" lon="11.801242593712022"><ele>1595.857142857143</ele><time>2026-05-01T09:23:06Z</time></trkpt><trkpt lat="45.86459115450714" lon="11.801343420976448"><ele>1593.7142857142856</ele><time>2026-05-01T09:23:11Z</time></trkpt><trkpt lat="45.86459252144749" lon="11.801437402060696"><ele>1591.5714285714284</ele><time>2026-05-01T09:23:16Z</time></trkpt><trkpt lat="45.86459564240833" lon="11.801532776738508"><ele>1589.4285714285716</ele><time>2026-05-01T09:23:21Z</time></trkpt><trkpt lat="45.86462574774431" lon="11.8016200519265"><ele>1587.2857142857142</ele><time>2026-05-01T09:23:26Z</time></trkpt><trkpt lat="45.86466443796669" lon="11.801710172957183"><ele>1585.142857142857</ele><time>2026-05-01T09:23:31Z</time></trkpt><trkpt lat="45.86468295647626" lon="11.80180995291249"><ele>1583.0</ele><time>2026-05-01T09:23:36Z</time></trkpt><trkpt lat="45.86470831796582" lon="11.801900206683733"><ele>1582.0</ele><time>2026-05-01T09:23:41Z</time></trkpt><trkpt lat="45.86471552263868" lon="11.802000738079359"><ele>1581.0</ele><time>2026-05-01T09:23:46Z</time></trkpt><trkpt lat="45.86471548657207" lon="11.802094461262072"><ele>1580.0</ele><time>2026-05-01T09:23:52Z</time></trkpt><trkpt lat="45.86471833406216" lon="11.802188455340387"><ele>1579.0</ele><time>2026-05-01T09:23:57Z</time></trkpt><trkpt lat="45.864740410408395" lon="11.80228908693017"><ele>1578.0</ele><time>2026-05-01T09:24:03Z</time></trkpt><trkpt lat="45.864749634521594" lon="11.802383121434067"><ele>1577.0</ele><time>2026-05-01T09:24:09Z</time></trkpt><trkpt lat="45.86475814974514" lon="11.802498228613727"><ele>1576.0</ele><time>2026-05-01T09:24:16Z</time></trkpt><trkpt lat="45.86474661950043" lon="11.802595450050486"><ele>1573.5714285714287</ele><time>2026-05-01T09:24:22Z</time></trkpt><trkpt lat="45.864699138805896" lon="11.802673668493577"><ele>1571.1428571428573</ele><time>2026-05-01T09:24:27Z</time></trkpt><trkpt lat="45.86464080647112" lon="11.80271897697746"><ele>1568.7142857142858</ele><time>2026-05-01T09:24:32Z</time></trkpt><trkpt lat="45.8645673253168" lon="11.802717255011476"><ele>1566.2857142857142</ele><time>2026-05-01T09:24:38Z</time></trkpt><trkpt lat="45.86449815734898" lon="11.802707688587656"><ele>1563.857142857143</ele><time>2026-05-01T09:24:44Z</time></trkpt><trkpt lat="45.86443167441992" lon="11.80268430279292"><ele>1561.4285714285713</ele><time>2026-05-01T09:24:49Z</time></trkpt><trkpt lat="45.86436123722026" lon="11.802671587357992"><ele>1559.0</ele><time>2026-05-01T09:24:55Z</time></trkpt><trkpt lat="45.864290362740064" lon="11.802670085860436"><ele>1560.142857142857</ele><time>2026-05-01T09:25:00Z</time></trkpt><trkpt lat="45.86422597101954" lon="11.802660624268157"><ele>1561.2857142857144</ele><time>2026-05-01T09:25:05Z</time></trkpt><trkpt lat="45.864161390480824" lon="11.802674997061516"><ele>1562.4285714285716</ele><time>2026-05-01T09:25:10Z</time></trkpt><trkpt lat="45.86408686712251" lon="11.802674353142052"><ele>1563.5714285714284</ele><time>2026-05-01T09:25:17Z</time></trkpt><trkpt lat="45.86401673711032" lon="11.802677116524366"><ele>1564.7142857142858</ele><time>2026-05-01T09:25:23Z</time></trkpt><trkpt lat="45.863953042548154" lon="11.802704849708688"><ele>1565.857142857143</ele><time>2026-05-01T09:25:28Z</time></trkpt><trkpt lat="45.8638880015699" lon="11.802732938733362"><ele>1567.0</ele><time>2026-05-01T09:25:34Z</time></trkpt><trkpt lat="45.86382531974521" lon="11.802760183130479"><ele>1567.0</ele><time>2026-05-01T09:25:39Z</time></trkpt><trkpt lat="45.86376540320363" lon="11.802789425680976"><ele>1567.0</ele><time>2026-05-01T09:25:44Z</time></trkpt><trkpt lat="45.86370343455973" lon="11.802821010144465"><ele>1567.0</ele><time>2026-05-01T09:25:49Z</time></trkpt><trkpt lat="45.86364384077449" lon="11.802852166898578"><ele>1567.0</ele><time>2026-05-01T09:25:54Z</time></trkpt><trkpt lat="45.863583838665896" lon="11.80288142479621"><ele>1567.0</ele><time>2026-05-01T09:25:59Z</time></trkpt><trkpt lat="45.86351630817044" lon="11.802904811372938"><ele>1567.0</ele><time>2026-05-01T09:26:04Z</time></trkpt><trkpt lat="45.863455984267624" lon="11.802931341094615"><ele>1567.0</ele><time>2026-05-01T09:26:09Z</time></trkpt><trkpt lat="45.863384638082174" lon="11.80296617115866"><ele>1567.7142857142858</ele><time>2026-05-01T09:26:15Z</time></trkpt><trkpt lat="45.863317750856595" lon="11.802979086582512"><ele>1568.4285714285713</ele><time>2026-05-01T09:26:21Z</time></trkpt><trkpt lat="45.86323860845183" lon="11.802980407140122"><ele>1569.1428571428573</ele><time>2026-05-01T09:26:27Z</time></trkpt><trkpt lat="45.86317641699275" lon="11.802922813271454"><ele>1569.857142857143</ele><time>2026-05-01T09:26:33Z</time></trkpt><trkpt lat="45.863112936581544" lon="11.802868130925297"><ele>1570.5714285714287</ele><time>2026-05-01T09:26:39Z</time></trkpt><trkpt lat="45.86305307982611" lon="11.802810161977293"><ele>1571.2857142857144</ele><time>2026-05-01T09:26:45Z</time></trkpt><trkpt lat="45.86300021557385" lon="11.80273949858105"><ele>1572.0</ele><time>2026-05-01T09:26:51Z</time></trkpt><trkpt lat="45.862957237288" lon="11.802648603536193"><ele>1573.0000000000002</ele><time>2026-05-01T09:26:57Z</time></trkpt><trkpt lat="45.86290650747275" lon="11.802582886630775"><ele>1574.0</ele><time>2026-05-01T09:27:03Z</time></trkpt><trkpt lat="45.86284826661729" lon="11.802530780501208"><ele>1575.0</ele><time>2026-05-01T09:27:08Z</time></trkpt><trkpt lat="45.86277668280187" lon="11.8024930692194"><ele>1576.0</ele><time>2026-05-01T09:27:14Z</time></trkpt><trkpt lat="45.862700715045484" lon="11.802477344147222"><ele>1577.0</ele><time>2026-05-01T09:27:20Z</time></trkpt><trkpt lat="45.862628260181566" lon="11.802492790453133"><ele>1578.0000000000002</ele><time>2026-05-01T09:27:26Z</time></trkpt><trkpt lat="45.862557958080956" lon="11.802520245108276"><ele>1579.0</ele><time>2026-05-01T09:27:32Z</time></trkpt><trkpt lat="45.86250866790466" lon="11.802593507028902"><ele>1579.0000000000002</ele><time>2026-05-01T09:27:38Z</time></trkpt><trkpt lat="45.86246389782107" lon="11.802662494579735"><ele>1579.0</ele><time>2026-05-01T09:27:43Z</time></trkpt><trkpt lat="45.862406834987866" lon="11.802722366501666"><ele>1579.0</ele><time>2026-05-01T09:27:49Z</time></trkpt><trkpt lat="45.862352620354734" lon="11.802774404501902"><ele>1579.0</ele><time>2026-05-01T09:27:54Z</time></trkpt><trkpt lat="45.86229408835231" lon="11.802825617508592"><ele>1579.0</ele><time>2026-05-01T09:28:00Z</time></trkpt><trkpt lat="45.862239639107436" lon="11.80288247009734"><ele>1579.0000000000002</ele><time>2026-05-01T09:28:12Z</time></trkpt><trkpt lat="45.862212742062454" lon="11.802974061332822"><ele>1579.0</ele><time>2026-05-01T09:28:22Z</time></trkpt><trkpt lat="45.86219633406919" lon="11.803065052325012"><ele>1577.5714285714287</ele><time>2026-05-01T09:28:25Z</time></trkpt><trkpt lat="45.862160908972406" lon="11.803144823421915"><ele>1576.142857142857</ele><time>2026-05-01T09:28:31Z</time></trkpt><trkpt lat="45.862124093221496" lon="11.803238882034261"><ele>1574.7142857142858</ele><time>2026-05-01T09:28:38Z</time></trkpt><trkpt lat="45.862087491358245" lon="11.803319967936401"><ele>1573.2857142857142</ele><time>2026-05-01T09:28:44Z</time></trkpt><trkpt lat="45.86203250903088" lon="11.803387562354139"><ele>1571.857142857143</ele><time>2026-05-01T09:28:50Z</time></trkpt><trkpt lat="45.86197307910837" lon="11.803443357862472"><ele>1570.4285714285716</ele><time>2026-05-01T09:28:56Z</time></trkpt><trkpt lat="45.86191660867517" lon="11.803499168656213"><ele>1569.0</ele><time>2026-05-01T09:29:04Z</time></trkpt><trkpt lat="45.86185191470881" lon="11.803536318978942"><ele>1568.2857142857142</ele><time>2026-05-01T09:29:09Z</time></trkpt><trkpt lat="45.86178664989033" lon="11.80354990298591"><ele>1567.5714285714287</ele><time>2026-05-01T09:29:14Z</time></trkpt><trkpt lat="45.86171200818114" lon="11.803561911280202"><ele>1566.8571428571427</ele><time>2026-05-01T09:29:23Z</time></trkpt><trkpt lat="45.861652583649416" lon="11.80361351139029"><ele>1566.142857142857</ele><time>2026-05-01T09:29:29Z</time></trkpt><trkpt lat="45.86159787150116" lon="11.803668244547204"><ele>1565.4285714285713</ele><time>2026-05-01T09:29:34Z</time></trkpt><trkpt lat="45.86153886006526" lon="11.803712637715186"><ele>1564.7142857142856</ele><time>2026-05-01T09:29:39Z</time></trkpt><trkpt lat="45.86147556473738" lon="11.803754591149877"><ele>1564.0</ele><time>2026-05-01T09:29:44Z</time></trkpt><trkpt lat="45.86142210178381" lon="11.803821979682452"><ele>1563.9999999999998</ele><time>2026-05-01T09:29:49Z</time></trkpt><trkpt lat="45.86137231693181" lon="11.803884309851014"><ele>1564.0</ele><time>2026-05-01T09:29:54Z</time></trkpt><trkpt lat="45.861306912484146" lon="11.803940767455444"><ele>1564.0</ele><time>2026-05-01T09:30:00Z</time></trkpt><trkpt lat="45.861248463476144" lon="11.80398361196821"><ele>1564.0</ele><time>2026-05-01T09:30:06Z</time></trkpt><trkpt lat="45.86119762626719" lon="11.804039607454175"><ele>1564.0</ele><time>2026-05-01T09:30:12Z</time></trkpt><trkpt lat="45.86113829140021" lon="11.804079204005273"><ele>1563.9999999999998</ele><time>2026-05-01T09:30:32Z</time></trkpt><trkpt lat="45.861082036692586" lon="11.804138103919461"><ele>1564.0</ele><time>2026-05-01T09:30:37Z</time></trkpt><trkpt lat="45.861009999405724" lon="11.804173842848757"><ele>1562.5714285714284</ele><time>2026-05-01T09:30:43Z</time></trkpt><trkpt lat="45.86093878592695" lon="11.804151924481669"><ele>1561.142857142857</ele><time>2026-05-01T09:30:48Z</time></trkpt><trkpt lat="45.860872822942504" lon="11.804144281351306"><ele>1559.7142857142858</ele><time>2026-05-01T09:30:53Z</time></trkpt><trkpt lat="45.86081129438563" lon="11.804123727228612"><ele>1558.2857142857142</ele><time>2026-05-01T09:31:00Z</time></trkpt><trkpt lat="45.8607440630765" lon="11.804106424321986"><ele>1556.857142857143</ele><time>2026-05-01T09:31:06Z</time></trkpt><trkpt lat="45.860679901424824" lon="11.804098844198315"><ele>1555.4285714285713</ele><time>2026-05-01T09:31:12Z</time></trkpt><trkpt lat="45.860605433547" lon="11.804072603318016"><ele>1554.0</ele><time>2026-05-01T09:31:19Z</time></trkpt><trkpt lat="45.86053928705439" lon="11.804073106294153"><ele>1554.0</ele><time>2026-05-01T09:31:26Z</time></trkpt><trkpt lat="45.86046890507924" lon="11.804083480025442"><ele>1554.0</ele><time>2026-05-01T09:31:32Z</time></trkpt><trkpt lat="45.86039566484014" lon="11.80409342145848"><ele>1554.0</ele><time>2026-05-01T09:31:38Z</time></trkpt><trkpt lat="45.86033531300158" lon="11.804130410209218"><ele>1554.0</ele><time>2026-05-01T09:31:45Z</time></trkpt><trkpt lat="45.86027238415878" lon="11.804156557066893"><ele>1554.0</ele><time>2026-05-01T09:31:56Z</time></trkpt><trkpt lat="45.86021131170015" lon="11.804206927438685"><ele>1554.0</ele><time>2026-05-01T09:32:23Z</time></trkpt><trkpt lat="45.860172091091314" lon="11.804278069153593"><ele>1554.0</ele><time>2026-05-01T09:32:37Z</time></trkpt><trkpt lat="45.86013623969732" lon="11.804357332950657"><ele>1548.5714285714287</ele><time>2026-05-01T09:32:46Z</time></trkpt><trkpt lat="45.86009564130771" lon="11.804430324153907"><ele>1543.142857142857</ele><time>2026-05-01T09:32:53Z</time></trkpt><trkpt lat="45.86004456722357" lon="11.804490146815828"><ele>1537.7142857142858</ele><time>2026-05-01T09:33:01Z</time></trkpt><trkpt lat="45.85998688792894" lon="11.80453238138698"><ele>1532.2857142857142</ele><time>2026-05-01T09:33:14Z</time></trkpt><trkpt lat="45.8599238594325" lon="11.804569847428438"><ele>1526.857142857143</ele><time>2026-05-01T09:33:24Z</time></trkpt><trkpt lat="45.85985812438617" lon="11.80458133443419"><ele>1521.4285714285716</ele><time>2026-05-01T09:33:32Z</time></trkpt><trkpt lat="45.85979271385895" lon="11.804619446199345"><ele>1516.0</ele><time>2026-05-01T09:33:40Z</time></trkpt><trkpt lat="45.85973218720165" lon="11.804657378732255"><ele>1516.0000000000002</ele><time>2026-05-01T09:33:48Z</time></trkpt><trkpt lat="45.85966778068761" lon="11.804655984923848"><ele>1516.0</ele><time>2026-05-01T09:33:55Z</time></trkpt><trkpt lat="45.85960275842951" lon="11.804667340370399"><ele>1516.0</ele><time>2026-05-01T09:34:03Z</time></trkpt><trkpt lat="45.859530828178805" lon="11.80467919425928"><ele>1516.0</ele><time>2026-05-01T09:34:10Z</time></trkpt><trkpt lat="45.859475858673854" lon="11.80472988281106"><ele>1516.0</ele><time>2026-05-01T09:34:15Z</time></trkpt><trkpt lat="45.859403528816856" lon="11.80476122125608"><ele>1516.0000000000002</ele><time>2026-05-01T09:34:21Z</time></trkpt><trkpt lat="45.8593383774875" lon="11.80477128329917"><ele>1516.0</ele><time>2026-05-01T09:34:28Z</time></trkpt><trkpt lat="45.85926492558051" lon="11.80480890838089"><ele>1512.1428571428573</ele><time>2026-05-01T09:35:21Z</time></trkpt><trkpt lat="45.85919975263771" lon="11.80478331400958"><ele>1508.2857142857142</ele><time>2026-05-01T09:35:52Z</time></trkpt><trkpt lat="45.859132176437186" lon="11.804753258258051"><ele>1504.4285714285716</ele><time>2026-05-01T09:36:09Z</time></trkpt><trkpt lat="45.859070062279265" lon="11.804728200784892"><ele>1500.5714285714287</ele><time>2026-05-01T09:36:19Z</time></trkpt><trkpt lat="45.85902220449002" lon="11.804654895885283"><ele>1496.7142857142858</ele><time>2026-05-01T09:36:33Z</time></trkpt><trkpt lat="45.859007736604596" lon="11.804565339177861"><ele>1492.857142857143</ele><time>2026-05-01T09:36:54Z</time></trkpt><trkpt lat="45.85898950510751" lon="11.804469592593628"><ele>1489.0</ele><time>2026-05-01T09:37:05Z</time></trkpt><trkpt lat="45.85898378983404" lon="11.804367656495291"><ele>1491.7142857142856</ele><time>2026-05-01T09:37:12Z</time></trkpt><trkpt lat="45.85895097825722" lon="11.80428609293342"><ele>1494.4285714285716</ele><time>2026-05-01T09:37:18Z</time></trkpt><trkpt lat="45.85891922249236" lon="11.804205058752254"><ele>1497.142857142857</ele><time>2026-05-01T09:37:24Z</time></trkpt><trkpt lat="45.85886745119987" lon="11.804264151877765"><ele>1499.8571428571427</ele><time>2026-05-01T09:37:33Z</time></trkpt><trkpt lat="45.85880104916354" lon="11.804264856645528"><ele>1502.5714285714284</ele><time>2026-05-01T09:37:42Z</time></trkpt><trkpt lat="45.85875335469158" lon="11.804166951378592"><ele>1505.2857142857142</ele><time>2026-05-01T09:37:47Z</time></trkpt><trkpt lat="45.85870577918575" lon="11.80410186668735"><ele>1508.0</ele><time>2026-05-01T09:37:50Z</time></trkpt><trkpt lat="45.858640263541616" lon="11.804068664501925"><ele>1507.9999999999998</ele><time>2026-05-01T09:37:53Z</time></trkpt><trkpt lat="45.85856653708255" lon="11.804056476399916"><ele>1508.0</ele><time>2026-05-01T09:37:57Z</time></trkpt><trkpt lat="45.85850343950193" lon="11.804079715889404"><ele>1508.0</ele><time>2026-05-01T09:38:00Z</time></trkpt><trkpt lat="45.85842932819688" lon="11.804117490153125"><ele>1508.0</ele><time>2026-05-01T09:38:04Z</time></trkpt><trkpt lat="45.858367627350475" lon="11.804163855444584"><ele>1508.0</ele><time>2026-05-01T09:38:08Z</time></trkpt><trkpt lat="45.85831271521" lon="11.804210048220078"><ele>1507.9999999999998</ele><time>2026-05-01T09:38:13Z</time></trkpt><trkpt lat="45.858236521943034" lon="11.80426689511556"><ele>1508.0</ele><time>2026-05-01T09:38:22Z</time></trkpt><trkpt lat="45.85815725203008" lon="11.804315428703083"><ele>1502.1666666666667</ele><time>2026-05-01T09:38:26Z</time></trkpt><trkpt lat="45.85809548147745" lon="11.8043602323851"><ele>1496.3333333333335</ele><time>2026-05-01T09:38:29Z</time></trkpt><trkpt lat="45.85802591994194" lon="11.804369683805238"><ele>1490.5</ele><time>2026-05-01T09:38:32Z</time></trkpt><trkpt lat="45.85794966682006" lon="11.804327923450904"><ele>1484.6666666666667</ele><time>2026-05-01T09:38:35Z</time></trkpt><trkpt lat="45.8578718309465" lon="11.804300810877677"><ele>1478.8333333333333</ele><time>2026-05-01T09:38:38Z</time></trkpt><trkpt lat="45.85779322880538" lon="11.804275779248995"><ele>1473.0</ele><time>2026-05-01T09:50:32Z</time></trkpt><trkpt lat="45.85772610036349" lon="11.80429408095423"><ele>1470.5714285714284</ele><time>2026-05-01T09:50:41Z</time></trkpt><trkpt lat="45.85766958632468" lon="11.804343833089087"><ele>1468.142857142857</ele><time>2026-05-01T09:50:48Z</time></trkpt><trkpt lat="45.85761068127669" lon="11.80437933962574"><ele>1465.7142857142858</ele><time>2026-05-01T09:50:56Z</time></trkpt><trkpt lat="45.857545737496736" lon="11.804418551206464"><ele>1463.2857142857142</ele><time>2026-05-01T09:51:03Z</time></trkpt><trkpt lat="45.85747959998193" lon="11.804459855044488"><ele>1460.857142857143</ele><time>2026-05-01T09:51:09Z</time></trkpt><trkpt lat="45.85742246374413" lon="11.804502144600388"><ele>1458.4285714285713</ele><time>2026-05-01T09:51:15Z</time></trkpt><trkpt lat="45.85736188220755" lon="11.80453872263141"><ele>1456.0</ele><time>2026-05-01T09:51:20Z</time></trkpt><trkpt lat="45.85729901553472" lon="11.804581968602525"><ele>1452.4285714285713</ele><time>2026-05-01T09:51:26Z</time></trkpt><trkpt lat="45.85723505668677" lon="11.804631448877128"><ele>1448.857142857143</ele><time>2026-05-01T09:51:31Z</time></trkpt><trkpt lat="45.857171617113394" lon="11.804665892516647"><ele>1445.2857142857142</ele><time>2026-05-01T09:51:36Z</time></trkpt><trkpt lat="45.85710947336879" lon="11.80469664739958"><ele>1441.7142857142858</ele><time>2026-05-01T09:51:41Z</time></trkpt><trkpt lat="45.85704102790299" lon="11.804717106301744"><ele>1438.142857142857</ele><time>2026-05-01T09:51:46Z</time></trkpt><trkpt lat="45.85697246485862" lon="11.804751903697612"><ele>1434.5714285714284</ele><time>2026-05-01T09:51:53Z</time></trkpt><trkpt lat="45.85692163207837" lon="11.804805418497796"><ele>1431.0</ele><time>2026-05-01T09:51:59Z</time></trkpt><trkpt lat="45.856871851903264" lon="11.804869008659553"><ele>1430.9999999999998</ele><time>2026-05-01T09:52:06Z</time></trkpt><trkpt lat="45.85682441525813" lon="11.80493135719049"><ele>1431.0</ele><time>2026-05-01T09:52:15Z</time></trkpt><trkpt lat="45.85677312817631" lon="11.80498995534223"><ele>1431.0</ele><time>2026-05-01T09:52:24Z</time></trkpt><trkpt lat="45.85672094231283" lon="11.805044536333616"><ele>1431.0</ele><time>2026-05-01T09:52:30Z</time></trkpt><trkpt lat="45.856665921695495" lon="11.805102576264424"><ele>1431.0</ele><time>2026-05-01T09:52:38Z</time></trkpt><trkpt lat="45.85660789714951" lon="11.805144779538178"><ele>1430.9999999999998</ele><time>2026-05-01T09:52:47Z</time></trkpt><trkpt lat="45.85654940521028" lon="11.805180053182896"><ele>1431.0</ele><time>2026-05-01T09:53:00Z</time></trkpt><trkpt lat="45.85648845702443" lon="11.805214090466093"><ele>1425.1666666666667</ele><time>2026-05-01T09:53:14Z</time></trkpt><trkpt lat="45.856437146835184" lon="11.805308427681409"><ele>1419.3333333333333</ele><time>2026-05-01T09:53:38Z</time></trkpt><trkpt lat="45.85639793725908" lon="11.805427860682823"><ele>1413.5</ele><time>2026-05-01T09:54:11Z</time></trkpt><trkpt lat="45.856334294957065" lon="11.805469238178059"><ele>1407.6666666666665</ele><time>2026-05-01T09:55:00Z</time></trkpt><trkpt lat="45.856265214781956" lon="11.80546173270813"><ele>1401.8333333333333</ele><time>2026-05-01T09:55:18Z</time></trkpt><trkpt lat="45.856196551955634" lon="11.805441911940429"><ele>1396.0</ele><time>2026-05-01T09:55:33Z</time></trkpt><trkpt lat="45.85622526617039" lon="11.805525937044187"><ele>1396.0</ele><time>2026-05-01T09:56:19Z</time></trkpt><trkpt lat="45.8561879284369" lon="11.805632322430899"><ele>1396.0</ele><time>2026-05-01T09:56:22Z</time></trkpt><trkpt lat="45.856160242998826" lon="11.805754041593158"><ele>1396.0</ele><time>2026-05-01T09:56:36Z</time></trkpt><trkpt lat="45.85621917632147" lon="11.80580978479822"><ele>1396.0</ele><time>2026-05-01T09:56:53Z</time></trkpt><trkpt lat="45.856148396435906" lon="11.805893647572086"><ele>1396.0</ele><time>2026-05-01T09:57:43Z</time></trkpt><trkpt lat="45.856106653090684" lon="11.805972953808423"><ele>1396.0</ele><time>2026-05-01T09:58:03Z</time></trkpt><trkpt lat="45.85603699695114" lon="11.806001853172646"><ele>1395.9999999999998</ele><time>2026-05-01T09:58:28Z</time></trkpt><trkpt lat="45.855975764252726" lon="11.805942966277248"><ele>1396.0</ele><time>2026-05-01T09:58:34Z</time></trkpt><trkpt lat="45.8559133102855" lon="11.805907130597571"><ele>1396.0</ele><time>2026-05-01T09:59:10Z</time></trkpt><trkpt lat="45.8558575552494" lon="11.805860053689258"><ele>1396.0</ele><time>2026-05-01T09:59:17Z</time></trkpt><trkpt lat="45.85580935474161" lon="11.805801673687995"><ele>1396.0</ele><time>2026-05-01T09:59:27Z</time></trkpt><trkpt lat="45.85575608045828" lon="11.80575286404967"><ele>1395.9999999999998</ele><time>2026-05-01T09:59:34Z</time></trkpt><trkpt lat="45.85569581004026" lon="11.80571216283539"><ele>1396.0</ele><time>2026-05-01T09:59:39Z</time></trkpt><trkpt lat="45.85564558754138" lon="11.805654534970456"><ele>1389.6666666666665</ele><time>2026-05-01T09:59:44Z</time></trkpt><trkpt lat="45.85555082220983" lon="11.805627202130133"><ele>1383.3333333333333</ele><time>2026-05-01T09:59:47Z</time></trkpt><trkpt lat="45.855532541819386" lon="11.805721494298982"><ele>1377.0</ele><time>2026-05-01T10:00:21Z</time></trkpt><trkpt lat="45.855598168137554" lon="11.805837189800894"><ele>1370.6666666666667</ele><time>2026-05-01T10:00:35Z</time></trkpt><trkpt lat="45.85561605706453" lon="11.805926629935065"><ele>1364.3333333333335</ele><time>2026-05-01T10:00:46Z</time></trkpt><trkpt lat="45.855553328468005" lon="11.805938179902117"><ele>1358.0</ele><time>2026-05-01T10:01:06Z</time></trkpt><trkpt lat="45.85548726635345" lon="11.805973093708852"><ele>1358.0</ele><time>2026-05-01T10:01:14Z</time></trkpt><trkpt lat="45.85541527107286" lon="11.806017610679804"><ele>1358.0</ele><time>2026-05-01T10:01:22Z</time></trkpt><trkpt lat="45.85547533331047" lon="11.805977943503102"><ele>1358.0</ele><time>2026-05-01T10:01:32Z</time></trkpt><trkpt lat="45.8554567143264" lon="11.806072183736495"><ele>1358.0</ele><time>2026-05-01T10:01:46Z</time></trkpt><trkpt lat="45.85542593195736" lon="11.806163232742895"><ele>1358.0</ele><time>2026-05-01T10:01:55Z</time></trkpt><trkpt lat="45.855331732744176" lon="11.80617301394596"><ele>1358.0</ele><time>2026-05-01T10:02:02Z</time></trkpt><trkpt lat="45.85525903524135" lon="11.806233926522793"><ele>1354.857142857143</ele><time>2026-05-01T10:02:15Z</time></trkpt><trkpt lat="45.8552152739981" lon="11.80630800858276"><ele>1351.7142857142858</ele><time>2026-05-01T10:02:19Z</time></trkpt><trkpt lat="45.85527435892854" lon="11.806219703640945"><ele>1348.5714285714284</ele><time>2026-05-01T10:02:40Z</time></trkpt><trkpt lat="45.85526060202957" lon="11.806309508704588"><ele>1345.4285714285716</ele><time>2026-05-01T10:03:10Z</time></trkpt><trkpt lat="45.855310464744605" lon="11.806390401800765"><ele>1342.2857142857142</ele><time>2026-05-01T10:03:31Z</time></trkpt><trkpt lat="45.855323464651164" lon="11.806494861631467"><ele>1339.142857142857</ele><time>2026-05-01T10:03:39Z</time></trkpt><trkpt lat="45.85526780335241" lon="11.806538845337634"><ele>1336.0</ele><time>2026-05-01T10:03:44Z</time></trkpt><trkpt lat="45.855212027841446" lon="11.806474343063888"><ele>1336.0</ele><time>2026-05-01T10:03:50Z</time></trkpt><trkpt lat="45.85514147525416" lon="11.80645267940405"><ele>1336.0</ele><time>2026-05-01T10:03:58Z</time></trkpt><trkpt lat="45.85511610749665" lon="11.806537946452137"><ele>1336.0</ele><time>2026-05-01T10:04:46Z</time></trkpt><trkpt lat="45.85507855550648" lon="11.806619488081049"><ele>1336.0</ele><time>2026-05-01T10:05:08Z</time></trkpt><trkpt lat="45.85501756925988" lon="11.806654966070319"><ele>1336.0</ele><time>2026-05-01T10:05:12Z</time></trkpt><trkpt lat="45.855053373493895" lon="11.806734931857726"><ele>1336.0</ele><time>2026-05-01T10:05:28Z</time></trkpt><trkpt lat="45.855026234247205" lon="11.806818574579033"><ele>1336.0</ele><time>2026-05-01T10:05:35Z</time></trkpt><trkpt lat="45.855014040580926" lon="11.80690935576999"><ele>1319.3333333333333</ele><time>2026-05-01T10:06:01Z</time></trkpt><trkpt lat="45.85498676178999" lon="11.807021694138955"><ele>1302.6666666666665</ele><time>2026-05-01T10:06:06Z</time></trkpt><trkpt lat="45.85496010619873" lon="11.80712409193742"><ele>1286.0</ele><time>2026-05-01T10:06:14Z</time></trkpt><trkpt lat="45.85493349848878" lon="11.8072282577335"><ele>1269.3333333333333</ele><time>2026-05-01T10:06:40Z</time></trkpt><trkpt lat="45.854948314410485" lon="11.80735988805657"><ele>1252.6666666666667</ele><time>2026-05-01T10:07:54Z</time></trkpt><trkpt lat="45.854954369154996" lon="11.807458770127793"><ele>1236.0</ele><time>2026-05-01T10:08:06Z</time></trkpt><trkpt lat="45.85495876781358" lon="11.807556420458967"><ele>1236.0000000000002</ele><time>2026-05-01T10:08:12Z</time></trkpt><trkpt lat="45.854948789235436" lon="11.807662687689987"><ele>1236.0</ele><time>2026-05-01T10:08:22Z</time></trkpt><trkpt lat="45.85489525070294" lon="11.807577965850925"><ele>1236.0</ele><time>2026-05-01T10:08:25Z</time></trkpt><trkpt lat="45.85482276428027" lon="11.80757575014474"><ele>1236.0</ele><time>2026-05-01T10:09:01Z</time></trkpt><trkpt lat="45.85480218260006" lon="11.807664057349054"><ele>1236.0</ele><time>2026-05-01T10:09:39Z</time></trkpt><trkpt lat="45.854837471491315" lon="11.807750643666262"><ele>1236.0000000000002</ele><time>2026-05-01T10:09:43Z</time></trkpt><trkpt lat="45.85486277521848" lon="11.807851490953581"><ele>1236.0</ele><time>2026-05-01T10:09:49Z</time></trkpt><trkpt lat="45.85477603019876" lon="11.807854383871572"><ele>1230.5</ele><time>2026-05-01T10:10:10Z</time></trkpt><trkpt lat="45.854687912592276" lon="11.807814089608476"><ele>1225.0</ele><time>2026-05-01T10:10:13Z</time></trkpt><trkpt lat="45.85462779454397" lon="11.80776825061857"><ele>1219.5</ele><time>2026-05-01T10:10:15Z</time></trkpt><trkpt lat="45.85456477882993" lon="11.807755386558716"><ele>1214.0</ele><time>2026-05-01T10:10:18Z</time></trkpt><trkpt lat="45.85461387656524" lon="11.807830491344928"><ele>1208.5</ele><time>2026-05-01T10:10:22Z</time></trkpt><trkpt lat="45.85463037070416" lon="11.807937821169716"><ele>1203.0</ele><time>2026-05-01T10:10:25Z</time></trkpt><trkpt lat="45.854544041277165" lon="11.80798453528592"><ele>1203.0</ele><time>2026-05-01T10:10:30Z</time></trkpt><trkpt lat="45.85448356869504" lon="11.808066536259263"><ele>1203.0</ele><time>2026-05-01T10:10:35Z</time></trkpt><trkpt lat="45.85445213807124" lon="11.80817129325465"><ele>1203.0</ele><time>2026-05-01T10:10:58Z</time></trkpt><trkpt lat="45.854382889317115" lon="11.808184497238871"><ele>1203.0</ele><time>2026-05-01T10:11:02Z</time></trkpt><trkpt lat="45.85432880740671" lon="11.808235980961273"><ele>1203.0</ele><time>2026-05-01T10:11:07Z</time></trkpt><trkpt lat="45.85437561719829" lon="11.808381801250738"><ele>1203.0</ele><time>2026-05-01T10:11:51Z</time></trkpt><trkpt lat="45.8543731540567" lon="11.80847506571439"><ele>1198.8333333333333</ele><time>2026-05-01T10:11:54Z</time></trkpt><trkpt lat="45.85436060932808" lon="11.808593935099411"><ele>1194.6666666666667</ele><time>2026-05-01T10:11:56Z</time></trkpt><trkpt lat="45.854307218776555" lon="11.808702274413356"><ele>1190.5</ele><time>2026-05-01T10:11:59Z</time></trkpt><trkpt lat="45.85429901582596" lon="11.808802921298431"><ele>1186.3333333333335</ele><time>2026-05-01T10:12:04Z</time></trkpt><trkpt lat="45.854299980711495" lon="11.80889389573875"><ele>1182.1666666666667</ele><time>2026-05-01T10:12:46Z</time></trkpt><trkpt lat="45.85426178271368" lon="11.808987379064881"><ele>1178.0</ele><time>2026-05-01T10:12:52Z</time></trkpt><trkpt lat="45.85424382198981" lon="11.809096188639863"><ele>1172.1666666666667</ele><time>2026-05-01T10:12:56Z</time></trkpt><trkpt lat="45.854229086315904" lon="11.80920410880788"><ele>1166.3333333333335</ele><time>2026-05-01T10:13:01Z</time></trkpt><trkpt lat="45.85424024612202" lon="11.80929783495975"><ele>1160.5</ele><time>2026-05-01T10:13:08Z</time></trkpt><trkpt lat="45.85422735600203" lon="11.809415886600632"><ele>1154.6666666666667</ele><time>2026-05-01T10:13:19Z</time></trkpt><trkpt lat="45.85421462844722" lon="11.809520181342402"><ele>1148.8333333333333</ele><time>2026-05-01T10:13:23Z</time></trkpt><trkpt lat="45.85420114254017" lon="11.809622402840201"><ele>1143.0</ele><time>2026-05-01T10:13:27Z</time></trkpt><trkpt lat="45.854149120906364" lon="11.809738420077757"><ele>1140.4285714285713</ele><time>2026-05-01T10:15:47Z</time></trkpt><trkpt lat="45.854149871298034" lon="11.809834089653027"><ele>1137.8571428571427</ele><time>2026-05-01T10:15:53Z</time></trkpt><trkpt lat="45.85414535110922" lon="11.809936368691329"><ele>1135.2857142857142</ele><time>2026-05-01T10:16:18Z</time></trkpt><trkpt lat="45.85415593276679" lon="11.810029056272084"><ele>1132.7142857142858</ele><time>2026-05-01T10:16:25Z</time></trkpt><trkpt lat="45.854132572789965" lon="11.810134189293251"><ele>1130.1428571428573</ele><time>2026-05-01T10:16:30Z</time></trkpt><trkpt lat="45.85411274758389" lon="11.81024320201993"><ele>1127.5714285714287</ele><time>2026-05-01T10:16:39Z</time></trkpt><trkpt lat="45.85410762414498" lon="11.81034642163656"><ele>1125.0</ele><time>2026-05-01T10:16:45Z</time></trkpt><trkpt lat="45.85407965177728" lon="11.81045220297403"><ele>1122.4285714285716</ele><time>2026-05-01T10:16:49Z</time></trkpt><trkpt lat="45.85405670132237" lon="11.810538709646298"><ele>1119.857142857143</ele><time>2026-05-01T10:16:53Z</time></trkpt><trkpt lat="45.85403944823143" lon="11.810648377301991"><ele>1117.2857142857142</ele><time>2026-05-01T10:16:58Z</time></trkpt><trkpt lat="45.853997049210875" lon="11.81071754227822"><ele>1114.7142857142858</ele><time>2026-05-01T10:17:03Z</time></trkpt><trkpt lat="45.85394358750579" lon="11.810766319608682"><ele>1112.142857142857</ele><time>2026-05-01T10:17:15Z</time></trkpt><trkpt lat="45.85392271383358" lon="11.81085421250334"><ele>1109.5714285714287</ele><time>2026-05-01T10:17:23Z</time></trkpt><trkpt lat="45.85391613976606" lon="11.810950864763303"><ele>1107.0</ele><time>2026-05-01T10:17:28Z</time></trkpt><trkpt lat="45.85388367924221" lon="11.811043884941924"><ele>1103.142857142857</ele><time>2026-05-01T10:17:34Z</time></trkpt><trkpt lat="45.85385192616009" lon="11.81112223980347"><ele>1099.2857142857142</ele><time>2026-05-01T10:17:38Z</time></trkpt><trkpt lat="45.8538188813262" lon="11.811207136983741"><ele>1095.4285714285713</ele><time>2026-05-01T10:17:42Z</time></trkpt><trkpt lat="45.85378028740889" lon="11.811287607555892"><ele>1091.5714285714284</ele><time>2026-05-01T10:17:46Z</time></trkpt><trkpt lat="45.853765084150595" lon="11.811379856280809"><ele>1087.7142857142856</ele><time>2026-05-01T10:17:50Z</time></trkpt><trkpt lat="45.8537321124534" lon="11.811459181396645"><ele>1083.857142857143</ele><time>2026-05-01T10:17:54Z</time></trkpt><trkpt lat="45.85368949194745" lon="11.811538979359671"><ele>1080.0</ele><time>2026-05-01T10:17:58Z</time></trkpt><trkpt lat="45.853623606539" lon="11.811592596700075"><ele>1080.0</ele><time>2026-05-01T10:18:03Z</time></trkpt><trkpt lat="45.85357314966665" lon="11.81165029082422"><ele>1080.0</ele><time>2026-05-01T10:18:07Z</time></trkpt><trkpt lat="45.85351532346382" lon="11.811711377488626"><ele>1080.0</ele><time>2026-05-01T10:18:11Z</time></trkpt><trkpt lat="45.85350088452376" lon="11.81180440181198"><ele>1080.0</ele><time>2026-05-01T10:18:15Z</time></trkpt><trkpt lat="45.85345731630086" lon="11.811887901279784"><ele>1080.0</ele><time>2026-05-01T10:18:19Z</time></trkpt><trkpt lat="45.85342229655999" lon="11.81196884353438"><ele>1080.0</ele><time>2026-05-01T10:18:25Z</time></trkpt><trkpt lat="45.85339063197817" lon="11.812053067534091"><ele>1080.0</ele><time>2026-05-01T10:18:32Z</time></trkpt><trkpt lat="45.853376291604235" lon="11.812150953812512"><ele>1077.5714285714284</ele><time>2026-05-01T10:18:36Z</time></trkpt><trkpt lat="45.85337228622596" lon="11.812242508048145"><ele>1075.142857142857</ele><time>2026-05-01T10:18:40Z</time></trkpt><trkpt lat="45.85333452402936" lon="11.812331297057014"><ele>1072.7142857142858</ele><time>2026-05-01T10:18:44Z</time></trkpt><trkpt lat="45.85327041309267" lon="11.812391546224323"><ele>1070.2857142857142</ele><time>2026-05-01T10:18:48Z</time></trkpt><trkpt lat="45.853245440841654" lon="11.812495871155177"><ele>1067.857142857143</ele><time>2026-05-01T10:18:53Z</time></trkpt><trkpt lat="45.85323056389082" lon="11.81259184677659"><ele>1065.4285714285713</ele><time>2026-05-01T10:18:58Z</time></trkpt><trkpt lat="45.85314977347868" lon="11.812612509018434"><ele>1063.0</ele><time>2026-05-01T10:19:02Z</time></trkpt><trkpt lat="45.85308714570569" lon="11.812625805637836"><ele>1063.0</ele><time>2026-05-01T10:19:07Z</time></trkpt><trkpt lat="45.853015438043904" lon="11.81266399973391"><ele>1063.0</ele><time>2026-05-01T10:19:11Z</time></trkpt><trkpt lat="45.85298120308657" lon="11.812580989937961"><ele>1063.0</ele><time>2026-05-01T10:20:54Z</time></trkpt><trkpt lat="45.852929797460575" lon="11.81264000004646"><ele>1063.0</ele><time>2026-05-01T10:20:59Z</time></trkpt><trkpt lat="45.85286033395731" lon="11.812634889412484"><ele>1063.0</ele><time>2026-05-01T10:21:05Z</time></trkpt><trkpt lat="45.85279739992548" lon="11.812671120020543"><ele>1063.0</ele><time>2026-05-01T10:21:09Z</time></trkpt><trkpt lat="45.85275352282523" lon="11.812760125283036"><ele>1063.0</ele><time>2026-05-01T10:21:13Z</time></trkpt><trkpt lat="45.852745966920864" lon="11.812865988024253"><ele>1058.4285714285713</ele><time>2026-05-01T10:21:18Z</time></trkpt><trkpt lat="45.85267278844277" lon="11.812915514801835"><ele>1053.857142857143</ele><time>2026-05-01T10:21:22Z</time></trkpt><trkpt lat="45.852611803709095" lon="11.812961293241862"><ele>1049.2857142857142</ele><time>2026-05-01T10:21:26Z</time></trkpt><trkpt lat="45.8525570679559" lon="11.81301432247475"><ele>1044.7142857142858</ele><time>2026-05-01T10:21:30Z</time></trkpt><trkpt lat="45.85253176099052" lon="11.813111520715427"><ele>1040.142857142857</ele><time>2026-05-01T10:21:35Z</time></trkpt><trkpt lat="45.852524252209285" lon="11.8132120231242"><ele>1035.5714285714284</ele><time>2026-05-01T10:21:40.999Z</time></trkpt><trkpt lat="45.85249886921784" lon="11.813302848204764"><ele>1031.0</ele><time>2026-05-01T10:21:47.999Z</time></trkpt><trkpt lat="45.85247557397416" lon="11.81319691001144"><ele>1031.0</ele><time>2026-05-01T10:21:56Z</time></trkpt><trkpt lat="45.852494937265554" lon="11.813106692997733"><ele>1031.0</ele><time>2026-05-01T10:22:02Z</time></trkpt><trkpt lat="45.85244832311777" lon="11.813181390929465"><ele>1031.0</ele><time>2026-05-01T10:22:14Z</time></trkpt><trkpt lat="45.85242259684509" lon="11.813264535083636"><ele>1031.0</ele><time>2026-05-01T10:22:18Z</time></trkpt><trkpt lat="45.85238599119007" lon="11.813361960252527"><ele>1031.0</ele><time>2026-05-01T10:22:22Z</time></trkpt><trkpt lat="45.8523716086586" lon="11.81345719916695"><ele>1031.0</ele><time>2026-05-01T10:22:26Z</time></trkpt><trkpt lat="45.8523444354006" lon="11.81354944743188"><ele>1031.0</ele><time>2026-05-01T10:22:31Z</time></trkpt><trkpt lat="45.85228489002994" lon="11.813617479932473"><ele>1028.0</ele><time>2026-05-01T10:22:36Z</time></trkpt><trkpt lat="45.852238510171304" lon="11.813683305468055"><ele>1025.0</ele><time>2026-05-01T10:22:40Z</time></trkpt><trkpt lat="45.85219367049143" lon="11.813781261712347"><ele>1022.0</ele><time>2026-05-01T10:22:45Z</time></trkpt><trkpt lat="45.852127918334844" lon="11.813825836608846"><ele>1019.0</ele><time>2026-05-01T10:22:50Z</time></trkpt><trkpt lat="45.85206677632423" lon="11.813862232809031"><ele>1016.0000000000001</ele><time>2026-05-01T10:22:55Z</time></trkpt><trkpt lat="45.852018521447114" lon="11.813772856293848"><ele>1013.0</ele><time>2026-05-01T10:23:05Z</time></trkpt><trkpt lat="45.85206983353577" lon="11.813671683312522"><ele>1013.0</ele><time>2026-05-01T10:23:16Z</time></trkpt><trkpt lat="45.85203206283609" lon="11.813744690708887"><ele>1013.0000000000001</ele><time>2026-05-01T10:23:25Z</time></trkpt><trkpt lat="45.851971029967515" lon="11.813806866480203"><ele>1013.0</ele><time>2026-05-01T10:23:29Z</time></trkpt><trkpt lat="45.851906321887235" lon="11.813825012477187"><ele>1013.0</ele><time>2026-05-01T10:23:33Z</time></trkpt><trkpt lat="45.85184418692296" lon="11.813878953280726"><ele>1013.0000000000001</ele><time>2026-05-01T10:23:38Z</time></trkpt><trkpt lat="45.85179841046571" lon="11.813951518812562"><ele>1013.0</ele><time>2026-05-01T10:23:43Z</time></trkpt><trkpt lat="45.85174020971089" lon="11.813999100681091"><ele>1013.0</ele><time>2026-05-01T10:23:48Z</time></trkpt><trkpt lat="45.8516844166696" lon="11.814051341254663"><ele>1009.2857142857143</ele><time>2026-05-01T10:23:53Z</time></trkpt><trkpt lat="45.85172950280901" lon="11.813942609923126"><ele>1005.5714285714287</ele><time>2026-05-01T10:23:59Z</time></trkpt><trkpt lat="45.851684103606594" lon="11.814014897669823"><ele>1001.8571428571429</ele><time>2026-05-01T10:24:10Z</time></trkpt><trkpt lat="45.85164320831084" lon="11.814094081725797"><ele>998.1428571428571</ele><time>2026-05-01T10:24:15Z</time></trkpt><trkpt lat="45.85158779023645" lon="11.814144546285593"><ele>994.4285714285714</ele><time>2026-05-01T10:24:20Z</time></trkpt><trkpt lat="45.85152435713024" lon="11.814165336890131"><ele>990.7142857142858</ele><time>2026-05-01T10:24:26Z</time></trkpt><trkpt lat="45.85152192161376" lon="11.81407293017892"><ele>987.0</ele><time>2026-05-01T10:24:35Z</time></trkpt><trkpt lat="45.85152256611428" lon="11.813965369391259"><ele>987.0</ele><time>2026-05-01T10:24:40Z</time></trkpt><trkpt lat="45.85152183589221" lon="11.81385333844048"><ele>987.0</ele><time>2026-05-01T10:24:46Z</time></trkpt><trkpt lat="45.851502117135745" lon="11.81375942782609"><ele>987.0</ele><time>2026-05-01T10:24:56Z</time></trkpt><trkpt lat="45.85151874734268" lon="11.813663916146947"><ele>987.0</ele><time>2026-05-01T10:25:00Z</time></trkpt><trkpt lat="45.85154790998774" lon="11.813560586142959"><ele>987.0</ele><time>2026-05-01T10:25:03Z</time></trkpt><trkpt lat="45.85157460536906" lon="11.81347080964892"><ele>987.0</ele><time>2026-05-01T10:25:06Z</time></trkpt><trkpt lat="45.85153633179708" lon="11.813560369069625"><ele>987.0</ele><time>2026-05-01T10:25:11Z</time></trkpt><trkpt lat="45.85151834151736" lon="11.81365142588354"><ele>987.0</ele><time>2026-05-01T10:25:14Z</time></trkpt><trkpt lat="45.8514986053975" lon="11.813751712278018"><ele>987.0</ele><time>2026-05-01T10:25:17Z</time></trkpt><trkpt lat="45.851437203599" lon="11.813820735592936"><ele>987.0</ele><time>2026-05-01T10:25:22Z</time></trkpt><trkpt lat="45.85138057993071" lon="11.813874845597475"><ele>987.0</ele><time>2026-05-01T10:25:27Z</time></trkpt><trkpt lat="45.85133376058867" lon="11.813957730009571"><ele>987.0</ele><time>2026-05-01T10:25:32Z</time></trkpt><trkpt lat="45.85131325661925" lon="11.814048625730548"><ele>987.0</ele><time>2026-05-01T10:25:36Z</time></trkpt><trkpt lat="45.851309324665316" lon="11.814160680627708"><ele>987.0</ele><time>2026-05-01T10:25:45Z</time></trkpt><trkpt lat="45.851328030100525" lon="11.814250407723481"><ele>985.8571428571429</ele><time>2026-05-01T10:25:50Z</time></trkpt><trkpt lat="45.85133713144092" lon="11.814342245301383"><ele>984.7142857142858</ele><time>2026-05-01T10:25:55Z</time></trkpt><trkpt lat="45.85133130827093" lon="11.814440707074759"><ele>983.5714285714286</ele><time>2026-05-01T10:26:02Z</time></trkpt><trkpt lat="45.85131006220349" lon="11.814549763162299"><ele>982.4285714285714</ele><time>2026-05-01T10:26:09Z</time></trkpt><trkpt lat="45.851251809213444" lon="11.814638529173267"><ele>981.2857142857143</ele><time>2026-05-01T10:26:14Z</time></trkpt><trkpt lat="45.85118796654393" lon="11.81469790439827"><ele>980.1428571428571</ele><time>2026-05-01T10:26:19Z</time></trkpt><trkpt lat="45.85113190448222" lon="11.814747043248063"><ele>979.0</ele><time>2026-05-01T10:26:23Z</time></trkpt><trkpt lat="45.851082459352824" lon="11.814807967403667"><ele>979.0</ele><time>2026-05-01T10:26:29Z</time></trkpt><trkpt lat="45.851058135145166" lon="11.814919585355746"><ele>979.0</ele><time>2026-05-01T10:26:37Z</time></trkpt><trkpt lat="45.8510961571472" lon="11.814996935808264"><ele>979.0</ele><time>2026-05-01T10:26:42Z</time></trkpt><trkpt lat="45.85112841040789" lon="11.81507588200786"><ele>979.0</ele><time>2026-05-01T10:27:15Z</time></trkpt><trkpt lat="45.85109533332739" lon="11.814968898090626"><ele>979.0</ele><time>2026-05-01T10:28:00Z</time></trkpt><trkpt lat="45.85107451851922" lon="11.814881819190681"><ele>979.0</ele><time>2026-05-01T10:28:05Z</time></trkpt><trkpt lat="45.85109419898138" lon="11.814989521167657"><ele>979.0</ele><time>2026-05-01T10:32:40Z</time></trkpt><trkpt lat="45.85109685712793" lon="11.81489714834745"><ele>979.0</ele><time>2026-05-01T10:35:35Z</time></trkpt><trkpt lat="45.851063730690235" lon="11.814816846723465"><ele>979.0</ele><time>2026-05-01T10:35:40Z</time></trkpt><trkpt lat="45.8510211979069" lon="11.814748894329464"><ele>979.0</ele><time>2026-05-01T10:35:45Z</time></trkpt><trkpt lat="45.85097744888893" lon="11.814674435054329"><ele>979.0</ele><time>2026-05-01T10:35:49Z</time></trkpt><trkpt lat="45.85098993418416" lon="11.814769067173657"><ele>979.0</ele><time>2026-05-01T10:35:59Z</time></trkpt><trkpt lat="45.85098367183374" lon="11.814861576007639"><ele>979.0</ele><time>2026-05-01T10:36:07Z</time></trkpt><trkpt lat="45.85097358795912" lon="11.814955506958304"><ele>979.0</ele><time>2026-05-01T10:36:12Z</time></trkpt><trkpt lat="45.85094873443215" lon="11.815059099835187"><ele>972.2857142857142</ele><time>2026-05-01T10:36:19Z</time></trkpt><trkpt lat="45.850913686142036" lon="11.81513598388127"><ele>965.5714285714287</ele><time>2026-05-01T10:36:30Z</time></trkpt><trkpt lat="45.85088281925246" lon="11.815228846128901"><ele>958.8571428571429</ele><time>2026-05-01T10:36:36Z</time></trkpt><trkpt lat="45.85085298900258" lon="11.81531848200791"><ele>952.1428571428571</ele><time>2026-05-01T10:36:46Z</time></trkpt><trkpt lat="45.850822449560425" lon="11.815405200667133"><ele>945.4285714285713</ele><time>2026-05-01T10:37:01Z</time></trkpt><trkpt lat="45.85079116459557" lon="11.815484398475995"><ele>938.7142857142858</ele><time>2026-05-01T10:37:06Z</time></trkpt><trkpt lat="45.850752717224886" lon="11.81556223470421"><ele>932.0</ele><time>2026-05-01T10:37:11Z</time></trkpt><trkpt lat="45.850707472244515" lon="11.815632795698592"><ele>931.0</ele><time>2026-05-01T10:37:28Z</time></trkpt><trkpt lat="45.85065442487436" lon="11.815691849426885"><ele>930.0</ele><time>2026-05-01T10:37:38Z</time></trkpt><trkpt lat="45.85059172267013" lon="11.81574630255648"><ele>929.0</ele><time>2026-05-01T10:37:54Z</time></trkpt><trkpt lat="45.850533590622206" lon="11.815791940066784"><ele>928.0</ele><time>2026-05-01T10:38:03Z</time></trkpt><trkpt lat="45.8504778481359" lon="11.815836889584098"><ele>927.0</ele><time>2026-05-01T10:38:13Z</time></trkpt><trkpt lat="45.8504232742395" lon="11.815885753854113"><ele>926.0</ele><time>2026-05-01T10:38:18Z</time></trkpt><trkpt lat="45.85036845582809" lon="11.815951317012699"><ele>925.0</ele><time>2026-05-01T10:38:28Z</time></trkpt><trkpt lat="45.85032416440663" lon="11.816016304300286"><ele>919.1428571428572</ele><time>2026-05-01T10:38:40Z</time></trkpt><trkpt lat="45.85028116531364" lon="11.816084963761499"><ele>913.2857142857142</ele><time>2026-05-01T10:38:58Z</time></trkpt><trkpt lat="45.85023604226007" lon="11.816154545042687"><ele>907.4285714285714</ele><time>2026-05-01T10:39:06Z</time></trkpt><trkpt lat="45.850195667269595" lon="11.816229858092555"><ele>901.5714285714287</ele><time>2026-05-01T10:39:11Z</time></trkpt><trkpt lat="45.850148018628545" lon="11.816302155758622"><ele>895.7142857142858</ele><time>2026-05-01T10:39:24Z</time></trkpt><trkpt lat="45.85012021710299" lon="11.816390915367748"><ele>889.8571428571429</ele><time>2026-05-01T10:39:36Z</time></trkpt><trkpt lat="45.85010636516444" lon="11.816495670897543"><ele>884.0</ele><time>2026-05-01T10:39:47Z</time></trkpt><trkpt lat="45.85016595462907" lon="11.816555192727334"><ele>884.0000000000001</ele><time>2026-05-01T10:42:38Z</time></trkpt><trkpt lat="45.850233818494814" lon="11.816559561499906"><ele>884.0</ele><time>2026-05-01T10:42:44Z</time></trkpt><trkpt lat="45.85016806921437" lon="11.816583294667696"><ele>884.0</ele><time>2026-05-01T10:43:13Z</time></trkpt><trkpt lat="45.85026045281502" lon="11.816553688637011"><ele>884.0</ele><time>2026-05-01T10:44:05Z</time></trkpt><trkpt lat="45.85032436180539" lon="11.816554699188686"><ele>884.0000000000001</ele><time>2026-05-01T10:44:08Z</time></trkpt><trkpt lat="45.85039636549504" lon="11.816533221968"><ele>884.0</ele><time>2026-05-01T10:44:10Z</time></trkpt><trkpt lat="45.85047928814687" lon="11.81655630326999"><ele>884.0000000000001</ele><time>2026-05-01T10:44:13Z</time></trkpt><trkpt lat="45.85053981338214" lon="11.816586059776752"><ele>884.0</ele><time>2026-05-01T10:44:15Z</time></trkpt><trkpt lat="45.850481450596654" lon="11.81663397379655"><ele>884.0</ele><time>2026-05-01T10:44:19Z</time></trkpt><trkpt lat="45.85042507087399" lon="11.816699523552703"><ele>884.0</ele><time>2026-05-01T10:44:25Z</time></trkpt><trkpt lat="45.850365883564265" lon="11.816761536481218"><ele>884.0</ele><time>2026-05-01T10:44:32Z</time></trkpt><trkpt lat="45.850310984973746" lon="11.816820906701132"><ele>884.0000000000001</ele><time>2026-05-01T10:44:37Z</time></trkpt><trkpt lat="45.850384342919185" lon="11.816868038274615"><ele>884.0</ele><time>2026-05-01T10:44:50Z</time></trkpt><trkpt lat="45.85045069861915" lon="11.816854898184877"><ele>877.4285714285714</ele><time>2026-05-01T10:44:54Z</time></trkpt><trkpt lat="45.85051340494315" lon="11.81687322552087"><ele>870.8571428571429</ele><time>2026-05-01T10:44:58Z</time></trkpt><trkpt lat="45.850578710200715" lon="11.816861601753251"><ele>864.2857142857142</ele><time>2026-05-01T10:45:03Z</time></trkpt><trkpt lat="45.850652536307514" lon="11.816896461011805"><ele>857.7142857142858</ele><time>2026-05-01T10:45:15Z</time></trkpt><trkpt lat="45.8507134889917" lon="11.816921506226327"><ele>851.1428571428571</ele><time>2026-05-01T10:45:24Z</time></trkpt><trkpt lat="45.85077716515894" lon="11.816943556703858"><ele>844.5714285714286</ele><time>2026-05-01T10:45:31Z</time></trkpt><trkpt lat="45.85084070970656" lon="11.816950237388848"><ele>838.0</ele><time>2026-05-01T10:45:42Z</time></trkpt><trkpt lat="45.850906219873366" lon="11.816952276122166"><ele>837.9999999999999</ele><time>2026-05-01T10:45:54Z</time></trkpt><trkpt lat="45.85097128252996" lon="11.816968562003607"><ele>838.0</ele><time>2026-05-01T10:46:02Z</time></trkpt><trkpt lat="45.85104736542112" lon="11.816998185038575"><ele>838.0</ele><time>2026-05-01T10:46:08Z</time></trkpt><trkpt lat="45.85111150066177" lon="11.817006326336317"><ele>838.0</ele><time>2026-05-01T10:46:15Z</time></trkpt><trkpt lat="45.85104064082375" lon="11.817030408034114"><ele>838.0</ele><time>2026-05-01T10:46:19Z</time></trkpt><trkpt lat="45.850977728346244" lon="11.817068270989731"><ele>837.9999999999999</ele><time>2026-05-01T10:46:32Z</time></trkpt><trkpt lat="45.85091032259507" lon="11.81707396833649"><ele>838.0</ele><time>2026-05-01T10:46:40Z</time></trkpt><trkpt lat="45.850859138452044" lon="11.817128661914861"><ele>837.9999999999999</ele><time>2026-05-01T10:46:48Z</time></trkpt><trkpt lat="45.8508040492528" lon="11.817173323663628"><ele>838.0</ele><time>2026-05-01T10:47:08Z</time></trkpt><trkpt lat="45.85073774469897" lon="11.81718912525959"><ele>838.0</ele><time>2026-05-01T10:47:17Z</time></trkpt><trkpt lat="45.85069142078868" lon="11.817261238122946"><ele>838.0</ele><time>2026-05-01T10:47:23Z</time></trkpt><trkpt lat="45.85062424392329" lon="11.817311888385397"><ele>838.0</ele><time>2026-05-01T10:47:33Z</time></trkpt><trkpt lat="45.85056468199446" lon="11.817361985260087"><ele>837.9999999999999</ele><time>2026-05-01T10:47:57Z</time></trkpt><trkpt lat="45.85051214755694" lon="11.817420050996596"><ele>838.0</ele><time>2026-05-01T10:48:01Z</time></trkpt><trkpt lat="45.85045186670283" lon="11.817475905877819"><ele>837.9999999999999</ele><time>2026-05-01T10:48:06Z</time></trkpt><trkpt lat="45.85051940070051" lon="11.817482181777587"><ele>838.0</ele><time>2026-05-01T10:48:19Z</time></trkpt><trkpt lat="45.8505850258168" lon="11.817494873141708"><ele>838.0</ele><time>2026-05-01T10:48:23Z</time></trkpt><trkpt lat="45.850659721524025" lon="11.817476441236078"><ele>838.0</ele><time>2026-05-01T10:48:28Z</time></trkpt><trkpt lat="45.850725640250666" lon="11.817484483909132"><ele>838.0</ele><time>2026-05-01T10:48:33Z</time></trkpt><trkpt lat="45.850791670309576" lon="11.81747815405555"><ele>837.9999999999999</ele><time>2026-05-01T10:48:39Z</time></trkpt><trkpt lat="45.85083909272383" lon="11.817568843216181"><ele>838.0</ele><time>2026-05-01T10:49:02Z</time></trkpt><trkpt lat="45.85077744622931" lon="11.817611167858137"><ele>837.9999999999999</ele><time>2026-05-01T10:49:09Z</time></trkpt><trkpt lat="45.850713358125994" lon="11.817648462694152"><ele>838.0</ele><time>2026-05-01T10:49:15Z</time></trkpt><trkpt lat="45.850653884205265" lon="11.817720186617036"><ele>838.0</ele><time>2026-05-01T10:49:22Z</time></trkpt><trkpt lat="45.85059533771875" lon="11.817769999149158"><ele>838.0</ele><time>2026-05-01T10:49:31Z</time></trkpt><trkpt lat="45.850545042757545" lon="11.81782873899308"><ele>838.0</ele><time>2026-05-01T10:49:37Z</time></trkpt><trkpt lat="45.85059547003866" lon="11.817885326378203"><ele>837.9999999999999</ele><time>2026-05-01T10:50:03Z</time></trkpt><trkpt lat="45.85066199800957" lon="11.817887624204356"><ele>838.0</ele><time>2026-05-01T10:50:06Z</time></trkpt><trkpt lat="45.850719010162415" lon="11.817847349492967"><ele>831.1428571428571</ele><time>2026-05-01T10:50:10Z</time></trkpt><trkpt lat="45.850784804069995" lon="11.817860745071972"><ele>824.2857142857142</ele><time>2026-05-01T10:50:16Z</time></trkpt><trkpt lat="45.85084501243018" lon="11.817898093185427"><ele>817.4285714285713</ele><time>2026-05-01T10:50:22Z</time></trkpt><trkpt lat="45.85091145860947" lon="11.817898701117821"><ele>810.5714285714286</ele><time>2026-05-01T10:50:33Z</time></trkpt><trkpt lat="45.850852251329265" lon="11.817971839664894"><ele>803.7142857142858</ele><time>2026-05-01T10:50:42Z</time></trkpt><trkpt lat="45.85078667371154" lon="11.81800580917808"><ele>796.8571428571428</ele><time>2026-05-01T10:50:49Z</time></trkpt><trkpt lat="45.850724039873946" lon="11.818031286513811"><ele>790.0</ele><time>2026-05-01T10:50:57Z</time></trkpt><trkpt lat="45.850668616861014" lon="11.818074547635"><ele>790.0</ele><time>2026-05-01T10:51:03Z</time></trkpt><trkpt lat="45.8505997541469" lon="11.818108964105205"><ele>790.0</ele><time>2026-05-01T10:51:16Z</time></trkpt><trkpt lat="45.85055992109335" lon="11.818200671520778"><ele>790.0</ele><time>2026-05-01T10:51:24Z</time></trkpt><trkpt lat="45.850631311285845" lon="11.818154440553007"><ele>790.0</ele><time>2026-05-01T10:51:28Z</time></trkpt><trkpt lat="45.85069542699673" lon="11.818131532895391"><ele>790.0</ele><time>2026-05-01T10:51:33Z</time></trkpt><trkpt lat="45.85075541456191" lon="11.818165235747445"><ele>790.0</ele><time>2026-05-01T10:51:37Z</time></trkpt><trkpt lat="45.85082045219618" lon="11.818170526246387"><ele>790.0</ele><time>2026-05-01T10:52:02Z</time></trkpt><trkpt lat="45.85088226836986" lon="11.818198809607216"><ele>789.9999999999999</ele><time>2026-05-01T10:52:17Z</time></trkpt><trkpt lat="45.85080652560081" lon="11.818135828891508"><ele>790.0</ele><time>2026-05-01T10:52:57Z</time></trkpt><trkpt lat="45.85072462939598" lon="11.818218925796113"><ele>790.0</ele><time>2026-05-01T10:53:38Z</time></trkpt><trkpt lat="45.850676007625616" lon="11.818283525830408"><ele>790.0</ele><time>2026-05-01T10:53:48Z</time></trkpt><trkpt lat="45.85076108714165" lon="11.818306523108458"><ele>789.9999999999999</ele><time>2026-05-01T10:53:59Z</time></trkpt><trkpt lat="45.85083481536148" lon="11.818312043939475"><ele>790.0</ele><time>2026-05-01T10:54:08Z</time></trkpt><trkpt lat="45.85090171207116" lon="11.818313470383195"><ele>788.8571428571428</ele><time>2026-05-01T10:54:18Z</time></trkpt><trkpt lat="45.85096149595297" lon="11.818243711128783"><ele>787.7142857142858</ele><time>2026-05-01T10:54:28Z</time></trkpt><trkpt lat="45.851027718448144" lon="11.818300396555594"><ele>786.5714285714286</ele><time>2026-05-01T10:54:33Z</time></trkpt><trkpt lat="45.85108371003213" lon="11.818257663870313"><ele>785.4285714285713</ele><time>2026-05-01T10:54:40Z</time></trkpt><trkpt lat="45.85103535841246" lon="11.818328634926438"><ele>784.2857142857142</ele><time>2026-05-01T10:54:44Z</time></trkpt><trkpt lat="45.85099466209569" lon="11.818419591239865"><ele>783.1428571428571</ele><time>2026-05-01T10:54:50Z</time></trkpt><trkpt lat="45.85095570670006" lon="11.818493469208434"><ele>782.0</ele><time>2026-05-01T10:54:59Z</time></trkpt><trkpt lat="45.85092233464654" lon="11.818570666436827"><ele>776.5714285714286</ele><time>2026-05-01T10:55:06Z</time></trkpt><trkpt lat="45.85084558713848" lon="11.81859046214451"><ele>771.1428571428571</ele><time>2026-05-01T10:55:13Z</time></trkpt><trkpt lat="45.850911060391994" lon="11.818581596912674"><ele>765.7142857142858</ele><time>2026-05-01T10:55:30Z</time></trkpt><trkpt lat="45.85097352782534" lon="11.81854164672209"><ele>760.2857142857142</ele><time>2026-05-01T10:55:41Z</time></trkpt><trkpt lat="45.85097855381173" lon="11.818633559576934"><ele>754.8571428571429</ele><time>2026-05-01T10:55:51Z</time></trkpt><trkpt lat="45.8509438828451" lon="11.818722241719534"><ele>749.4285714285714</ele><time>2026-05-01T10:55:59Z</time></trkpt><trkpt lat="45.85087796155648" lon="11.818696597383425"><ele>744.0</ele><time>2026-05-01T10:56:19Z</time></trkpt><trkpt lat="45.850952428906595" lon="11.818721955259813"><ele>739.4285714285714</ele><time>2026-05-01T10:56:23Z</time></trkpt><trkpt lat="45.851007134493344" lon="11.818647489876776"><ele>734.8571428571429</ele><time>2026-05-01T10:56:30Z</time></trkpt><trkpt lat="45.851068049729776" lon="11.81861783656592"><ele>730.2857142857142</ele><time>2026-05-01T10:56:35Z</time></trkpt><trkpt lat="45.85112403346896" lon="11.818692207019168"><ele>725.7142857142858</ele><time>2026-05-01T10:56:41Z</time></trkpt><trkpt lat="45.85117233602449" lon="11.818754167281488"><ele>721.1428571428571</ele><time>2026-05-01T10:56:49Z</time></trkpt><trkpt lat="45.85122063225762" lon="11.81881572590551"><ele>716.5714285714286</ele><time>2026-05-01T10:57:03Z</time></trkpt><trkpt lat="45.851293386704704" lon="11.818812262925551"><ele>712.0</ele><time>2026-05-01T10:57:17Z</time></trkpt><trkpt lat="45.851347602142724" lon="11.818766092554501"><ele>711.9999999999999</ele><time>2026-05-01T10:57:27Z</time></trkpt><trkpt lat="45.85142455844019" lon="11.818708288271953"><ele>712.0</ele><time>2026-05-01T10:57:30Z</time></trkpt><trkpt lat="45.85149342282027" lon="11.818693740732707"><ele>712.0</ele><time>2026-05-01T10:57:37Z</time></trkpt><trkpt lat="45.85155848169831" lon="11.818678912206739"><ele>712.0</ele><time>2026-05-01T10:57:49Z</time></trkpt><trkpt lat="45.85162771510739" lon="11.818647746444377"><ele>712.0</ele><time>2026-05-01T10:58:00Z</time></trkpt><trkpt lat="45.85169673238743" lon="11.818640987859885"><ele>711.9999999999999</ele><time>2026-05-01T10:58:11Z</time></trkpt><trkpt lat="45.85176173165522" lon="11.81862351426193"><ele>712.0</ele><time>2026-05-01T10:58:18Z</time></trkpt><trkpt lat="45.85183683626517" lon="11.818584904207997"><ele>709.2857142857142</ele><time>2026-05-01T10:58:23Z</time></trkpt><trkpt lat="45.85190931365829" lon="11.818557751145882"><ele>706.5714285714286</ele><time>2026-05-01T10:58:29Z</time></trkpt><trkpt lat="45.85195030063059" lon="11.81862641041106"><ele>703.8571428571429</ele><time>2026-05-01T10:58:37Z</time></trkpt><trkpt lat="45.852019989827305" lon="11.818608642518434"><ele>701.1428571428571</ele><time>2026-05-01T10:58:44Z</time></trkpt><trkpt lat="45.85205647687794" lon="11.818534356532892"><ele>698.4285714285714</ele><time>2026-05-01T10:58:54Z</time></trkpt><trkpt lat="45.8521255120134" lon="11.818555728138884"><ele>695.7142857142857</ele><time>2026-05-01T10:59:14Z</time></trkpt><trkpt lat="45.852190472130864" lon="11.818549813787774"><ele>693.0</ele><time>2026-05-01T10:59:20Z</time></trkpt><trkpt lat="45.852254882358615" lon="11.818520638490698"><ele>693.0</ele><time>2026-05-01T10:59:28Z</time></trkpt><trkpt lat="45.852318200316034" lon="11.81849575985373"><ele>693.0</ele><time>2026-05-01T10:59:34Z</time></trkpt><trkpt lat="45.85239165999063" lon="11.818493091637297"><ele>693.0</ele><time>2026-05-01T10:59:40Z</time></trkpt><trkpt lat="45.8524685827334" lon="11.81847729388189"><ele>693.0</ele><time>2026-05-01T10:59:48Z</time></trkpt><trkpt lat="45.852543167977444" lon="11.81843598978222"><ele>693.0</ele><time>2026-05-01T10:59:53Z</time></trkpt><trkpt lat="45.85260709590281" lon="11.818460444163401"><ele>693.0</ele><time>2026-05-01T11:00:02Z</time></trkpt><trkpt lat="45.85264389190806" lon="11.818373101899999"><ele>693.0</ele><time>2026-05-01T11:00:15Z</time></trkpt><trkpt lat="45.85270190103469" lon="11.818326461370239"><ele>693.0</ele><time>2026-05-01T11:00:21Z</time></trkpt><trkpt lat="45.852694201557284" lon="11.818436367125136"><ele>693.0</ele><time>2026-05-01T11:00:26Z</time></trkpt><trkpt lat="45.85264163136915" lon="11.818512423508272"><ele>693.0</ele><time>2026-05-01T11:00:40Z</time></trkpt><trkpt lat="45.85259340521309" lon="11.818582924125911"><ele>693.0</ele><time>2026-05-01T11:00:49Z</time></trkpt><trkpt lat="45.85254230691472" lon="11.818651687927085"><ele>693.0</ele><time>2026-05-01T11:00:55Z</time></trkpt><trkpt lat="45.852491154290995" lon="11.818718708624647"><ele>693.0</ele><time>2026-05-01T11:01:02Z</time></trkpt><trkpt lat="45.852440310277586" lon="11.818780249073109"><ele>693.0</ele><time>2026-05-01T11:01:10Z</time></trkpt><trkpt lat="45.852405208656315" lon="11.818858957163672"><ele>693.0</ele><time>2026-05-01T11:01:18Z</time></trkpt><trkpt lat="45.85234143888599" lon="11.818892000519442"><ele>693.0</ele><time>2026-05-01T11:01:25Z</time></trkpt><trkpt lat="45.85228354750026" lon="11.818932894592637"><ele>693.0</ele><time>2026-05-01T11:01:32Z</time></trkpt><trkpt lat="45.85223143001201" lon="11.819010130175236"><ele>693.0</ele><time>2026-05-01T11:01:39Z</time></trkpt><trkpt lat="45.85218464068755" lon="11.819089283506194"><ele>693.0</ele><time>2026-05-01T11:01:45Z</time></trkpt><trkpt lat="45.85215944924729" lon="11.819178058123592"><ele>693.0</ele><time>2026-05-01T11:01:57Z</time></trkpt><trkpt lat="45.85214447091398" lon="11.819272160398825"><ele>693.0</ele><time>2026-05-01T11:02:03Z</time></trkpt><trkpt lat="45.852092386069444" lon="11.819185562067865"><ele>693.0</ele><time>2026-05-01T11:02:11Z</time></trkpt><trkpt lat="45.85215888047294" lon="11.819146003586011"><ele>693.0</ele><time>2026-05-01T11:02:16Z</time></trkpt><trkpt lat="45.85222359051696" lon="11.81912609894662"><ele>693.0</ele><time>2026-05-01T11:02:20Z</time></trkpt><trkpt lat="45.85228622274101" lon="11.819069330803535"><ele>693.0</ele><time>2026-05-01T11:02:26Z</time></trkpt><trkpt lat="45.852248635461834" lon="11.81915646754724"><ele>693.0</ele><time>2026-05-01T11:02:35Z</time></trkpt><trkpt lat="45.852229601899346" lon="11.819270117166509"><ele>693.0</ele><time>2026-05-01T11:02:39Z</time></trkpt><trkpt lat="45.8522185115883" lon="11.819363995240481"><ele>693.0</ele><time>2026-05-01T11:02:46Z</time></trkpt><trkpt lat="45.85217149517955" lon="11.819436875137763"><ele>692.1428571428571</ele><time>2026-05-01T11:02:52Z</time></trkpt><trkpt lat="45.85213197121925" lon="11.819528552387643"><ele>691.2857142857142</ele><time>2026-05-01T11:03:11Z</time></trkpt><trkpt lat="45.85211544753167" lon="11.819626987177369"><ele>690.4285714285714</ele><time>2026-05-01T11:03:17Z</time></trkpt><trkpt lat="45.85208485291184" lon="11.819711548610167"><ele>689.5714285714286</ele><time>2026-05-01T11:03:22Z</time></trkpt><trkpt lat="45.85211516761637" lon="11.819628106671166"><ele>688.7142857142857</ele><time>2026-05-01T11:03:26Z</time></trkpt><trkpt lat="45.85208593921724" lon="11.819709348684961"><ele>687.8571428571429</ele><time>2026-05-01T11:03:38Z</time></trkpt><trkpt lat="45.85215209991457" lon="11.819660622745124"><ele>687.0</ele><time>2026-05-01T11:03:49Z</time></trkpt><trkpt lat="45.852091196812516" lon="11.819735769735814"><ele>687.0</ele><time>2026-05-01T11:03:55Z</time></trkpt><trkpt lat="45.85203421968391" lon="11.819792108568906"><ele>687.0</ele><time>2026-05-01T11:04:02Z</time></trkpt><trkpt lat="45.85199006483396" lon="11.819871610717122"><ele>687.0</ele><time>2026-05-01T11:04:24Z</time></trkpt><trkpt lat="45.851928221991486" lon="11.8199118270693"><ele>687.0</ele><time>2026-05-01T11:04:30Z</time></trkpt><trkpt lat="45.85192868020384" lon="11.820010843008848"><ele>687.0</ele><time>2026-05-01T11:04:48Z</time></trkpt><trkpt lat="45.85188226675939" lon="11.82010131732832"><ele>687.0</ele><time>2026-05-01T11:05:04Z</time></trkpt><trkpt lat="45.851826186884686" lon="11.820152919324329"><ele>687.0</ele><time>2026-05-01T11:05:12Z</time></trkpt><trkpt lat="45.85174894771564" lon="11.820158792348076"><ele>681.8571428571429</ele><time>2026-05-01T11:05:21Z</time></trkpt><trkpt lat="45.85169585503415" lon="11.820208702199333"><ele>676.7142857142857</ele><time>2026-05-01T11:05:26Z</time></trkpt><trkpt lat="45.85163984630246" lon="11.820264444422294"><ele>671.5714285714286</ele><time>2026-05-01T11:05:34Z</time></trkpt><trkpt lat="45.851589474377285" lon="11.820319349269555"><ele>666.4285714285714</ele><time>2026-05-01T11:05:38Z</time></trkpt><trkpt lat="45.8515364790269" lon="11.820389835406964"><ele>661.2857142857142</ele><time>2026-05-01T11:05:44Z</time></trkpt><trkpt lat="45.85149079787801" lon="11.820464860588693"><ele>656.1428571428571</ele><time>2026-05-01T11:05:50Z</time></trkpt><trkpt lat="45.8514432934893" lon="11.820563599396179"><ele>651.0</ele><time>2026-05-01T11:05:55Z</time></trkpt><trkpt lat="45.85141194118314" lon="11.820646788183575"><ele>651.0</ele><time>2026-05-01T11:06:01Z</time></trkpt><trkpt lat="45.851376608068286" lon="11.820724468540659"><ele>651.0</ele><time>2026-05-01T11:06:04Z</time></trkpt><trkpt lat="45.851341863766315" lon="11.820829044741423"><ele>651.0</ele><time>2026-05-01T11:06:14Z</time></trkpt><trkpt lat="45.851316458714805" lon="11.820926611398077"><ele>651.0</ele><time>2026-05-01T11:06:56Z</time></trkpt><trkpt lat="45.85128487794137" lon="11.821006613178842"><ele>651.0</ele><time>2026-05-01T11:06:59Z</time></trkpt><trkpt lat="45.851253097888275" lon="11.821087119862778"><ele>651.0</ele><time>2026-05-01T11:07:03Z</time></trkpt><trkpt lat="45.851217889966186" lon="11.82117631021866"><ele>651.0</ele><time>2026-05-01T11:07:07Z</time></trkpt><trkpt lat="45.85118023315932" lon="11.821273684235367"><ele>651.2857142857143</ele><time>2026-05-01T11:07:11Z</time></trkpt><trkpt lat="45.85114288481252" lon="11.82135011869369"><ele>651.5714285714286</ele><time>2026-05-01T11:07:15Z</time></trkpt><trkpt lat="45.85110091261074" lon="11.821431093301053"><ele>651.8571428571429</ele><time>2026-05-01T11:07:21Z</time></trkpt><trkpt lat="45.85103211132593" lon="11.821475920423149"><ele>652.1428571428571</ele><time>2026-05-01T11:07:27Z</time></trkpt><trkpt lat="45.850966824379306" lon="11.821518162962922"><ele>652.4285714285714</ele><time>2026-05-01T11:07:31Z</time></trkpt><trkpt lat="45.85097561101612" lon="11.821610271495466"><ele>652.7142857142858</ele><time>2026-05-01T11:07:38Z</time></trkpt><trkpt lat="45.850959394344905" lon="11.821709035723837"><ele>653.0</ele><time>2026-05-01T11:07:44Z</time></trkpt><trkpt lat="45.850928907538204" lon="11.82179865790628"><ele>648.7142857142858</ele><time>2026-05-01T11:07:49Z</time></trkpt><trkpt lat="45.85090186734087" lon="11.82188367382107"><ele>644.4285714285714</ele><time>2026-05-01T11:07:55Z</time></trkpt><trkpt lat="45.85090041774432" lon="11.821982390553565"><ele>640.1428571428571</ele><time>2026-05-01T11:08:01Z</time></trkpt><trkpt lat="45.85089404549656" lon="11.822076817076686"><ele>635.8571428571429</ele><time>2026-05-01T11:08:05Z</time></trkpt><trkpt lat="45.85087338465755" lon="11.822174986983063"><ele>631.5714285714286</ele><time>2026-05-01T11:08:11Z</time></trkpt><trkpt lat="45.85084744635061" lon="11.822262773188523"><ele>627.2857142857143</ele><time>2026-05-01T11:08:24Z</time></trkpt><trkpt lat="45.85079342367158" lon="11.822338767937845"><ele>623.0</ele><time>2026-05-01T11:08:30Z</time></trkpt><trkpt lat="45.850753180985436" lon="11.82244005446002"><ele>623.0</ele><time>2026-05-01T11:08:35Z</time></trkpt><trkpt lat="45.850704729016705" lon="11.82251707523137"><ele>623.0</ele><time>2026-05-01T11:08:54Z</time></trkpt><trkpt lat="45.85066232130446" lon="11.822586467664015"><ele>623.0</ele><time>2026-05-01T11:08:58Z</time></trkpt><trkpt lat="45.85062446675267" lon="11.822666846263521"><ele>623.0</ele><time>2026-05-01T11:09:04Z</time></trkpt><trkpt lat="45.85057883825728" lon="11.822745557005181"><ele>623.0</ele><time>2026-05-01T11:09:09Z</time></trkpt><trkpt lat="45.85052299915948" lon="11.822811808673352"><ele>623.0</ele><time>2026-05-01T11:09:16Z</time></trkpt><trkpt lat="45.85046464127311" lon="11.822870233976843"><ele>623.0</ele><time>2026-05-01T11:09:21Z</time></trkpt><trkpt lat="45.85040140472021" lon="11.822911349763842"><ele>625.1428571428571</ele><time>2026-05-01T11:09:25Z</time></trkpt><trkpt lat="45.85032521031507" lon="11.822925289836263"><ele>627.2857142857142</ele><time>2026-05-01T11:09:29Z</time></trkpt><trkpt lat="45.8502636598733" lon="11.822947749286515"><ele>629.4285714285714</ele><time>2026-05-01T11:09:33Z</time></trkpt><trkpt lat="45.85020064425369" lon="11.822961974646121"><ele>631.5714285714286</ele><time>2026-05-01T11:09:37Z</time></trkpt><trkpt lat="45.850127077063405" lon="11.82295027137636"><ele>633.7142857142857</ele><time>2026-05-01T11:09:42Z</time></trkpt><trkpt lat="45.85005695785358" lon="11.822973954898915"><ele>635.8571428571429</ele><time>2026-05-01T11:09:47Z</time></trkpt><trkpt lat="45.84998378100081" lon="11.822975766782251"><ele>638.0</ele><time>2026-05-01T11:09:53Z</time></trkpt><trkpt lat="45.849917202971" lon="11.822982288348122"><ele>633.2857142857143</ele><time>2026-05-01T11:09:58Z</time></trkpt><trkpt lat="45.849843230690446" lon="11.822995453331583"><ele>628.5714285714286</ele><time>2026-05-01T11:10:04Z</time></trkpt><trkpt lat="45.84979446864008" lon="11.82305665692479"><ele>623.8571428571429</ele><time>2026-05-01T11:10:08Z</time></trkpt><trkpt lat="45.849853542198154" lon="11.82312581447001"><ele>619.1428571428571</ele><time>2026-05-01T11:10:20Z</time></trkpt><trkpt lat="45.8498457705804" lon="11.82324672138514"><ele>614.4285714285714</ele><time>2026-05-01T11:10:24Z</time></trkpt><trkpt lat="45.849790706139274" lon="11.823292465017179"><ele>609.7142857142857</ele><time>2026-05-01T11:10:28Z</time></trkpt><trkpt lat="45.84972668333167" lon="11.823305717415343"><ele>605.0</ele><time>2026-05-01T11:10:34Z</time></trkpt><trkpt lat="45.849660495874055" lon="11.823330096280376"><ele>605.0</ele><time>2026-05-01T11:10:43Z</time></trkpt><trkpt lat="45.84960922431402" lon="11.823395028735543"><ele>605.0</ele><time>2026-05-01T11:10:48Z</time></trkpt><trkpt lat="45.84954641948132" lon="11.823455935569083"><ele>605.0</ele><time>2026-05-01T11:10:56Z</time></trkpt><trkpt lat="45.84948735107015" lon="11.82350420790685"><ele>605.0</ele><time>2026-05-01T11:11:01Z</time></trkpt><trkpt lat="45.849451621806374" lon="11.823588367135429"><ele>605.0</ele><time>2026-05-01T11:11:08Z</time></trkpt><trkpt lat="45.84940913001222" lon="11.82366213621033"><ele>605.0</ele><time>2026-05-01T11:11:13Z</time></trkpt><trkpt lat="45.849345545633106" lon="11.823714566991502"><ele>605.0</ele><time>2026-05-01T11:11:19Z</time></trkpt><trkpt lat="45.84930398528085" lon="11.82379468014957"><ele>604.7142857142857</ele><time>2026-05-01T11:11:24Z</time></trkpt><trkpt lat="45.84923576103843" lon="11.823850185400087"><ele>604.4285714285714</ele><time>2026-05-01T11:11:29Z</time></trkpt><trkpt lat="45.849167625399524" lon="11.823847841456445"><ele>604.1428571428571</ele><time>2026-05-01T11:11:36Z</time></trkpt><trkpt lat="45.849102623676494" lon="11.823893040427091"><ele>603.8571428571429</ele><time>2026-05-01T11:11:42Z</time></trkpt><trkpt lat="45.8490441031353" lon="11.823939542535573"><ele>603.5714285714286</ele><time>2026-05-01T11:11:49Z</time></trkpt><trkpt lat="45.848982464275124" lon="11.823997981075673"><ele>603.2857142857143</ele><time>2026-05-01T11:11:56Z</time></trkpt><trkpt lat="45.84891961461836" lon="11.824042713886573"><ele>603.0</ele><time>2026-05-01T11:12:02Z</time></trkpt><trkpt lat="45.84886274519139" lon="11.824093739359457"><ele>603.0</ele><time>2026-05-01T11:12:08Z</time></trkpt><trkpt lat="45.848807752480106" lon="11.824148054487038"><ele>603.0</ele><time>2026-05-01T11:12:13Z</time></trkpt><trkpt lat="45.84874596461738" lon="11.824191417868349"><ele>603.0</ele><time>2026-05-01T11:12:19Z</time></trkpt><trkpt lat="45.848699169116266" lon="11.824258988860269"><ele>603.0</ele><time>2026-05-01T11:12:24Z</time></trkpt><trkpt lat="45.84865868557413" lon="11.824335584244876"><ele>603.0</ele><time>2026-05-01T11:12:31Z</time></trkpt><trkpt lat="45.848594990115586" lon="11.824386258923594"><ele>603.0</ele><time>2026-05-01T11:12:38Z</time></trkpt><trkpt lat="45.84853774137061" lon="11.824428318885689"><ele>603.0</ele><time>2026-05-01T11:12:43Z</time></trkpt><trkpt lat="45.84847199420343" lon="11.824438869976422"><ele>600.8571428571429</ele><time>2026-05-01T11:12:49Z</time></trkpt><trkpt lat="45.84840740861338" lon="11.824439835141433"><ele>598.7142857142857</ele><time>2026-05-01T11:12:56Z</time></trkpt><trkpt lat="45.848337988863925" lon="11.824464695036097"><ele>596.5714285714286</ele><time>2026-05-01T11:13:04Z</time></trkpt><trkpt lat="45.84831161504959" lon="11.824551039070816"><ele>594.4285714285714</ele><time>2026-05-01T11:13:12Z</time></trkpt><trkpt lat="45.84824392105193" lon="11.824598275053974"><ele>592.2857142857142</ele><time>2026-05-01T11:13:18Z</time></trkpt><trkpt lat="45.84817481321653" lon="11.824603276526108"><ele>590.1428571428571</ele><time>2026-05-01T11:13:25Z</time></trkpt><trkpt lat="45.84810877305296" lon="11.824613881583991"><ele>588.0</ele><time>2026-05-01T11:13:39Z</time></trkpt><trkpt lat="45.84803522565582" lon="11.824627043153459"><ele>588.0</ele><time>2026-05-01T11:13:46Z</time></trkpt><trkpt lat="45.84800052212753" lon="11.824710722195459"><ele>588.0</ele><time>2026-05-01T11:13:51Z</time></trkpt><trkpt lat="45.84793859705338" lon="11.824768492119022"><ele>588.0</ele><time>2026-05-01T11:13:59Z</time></trkpt><trkpt lat="45.84791464375427" lon="11.824854752010326"><ele>588.0</ele><time>2026-05-01T11:14:21Z</time></trkpt><trkpt lat="45.84792280166274" lon="11.824944452081263"><ele>588.0</ele><time>2026-05-01T11:14:29Z</time></trkpt></trkseg></trk></gpx>